Flight Track Log - Related Links

Times and Time Zones

All times are in EDT time to prevent confusion due to time zone crossing. See the UAL118 flight status page for this flight to view local times or setup timezone preferences in your user account.

Time Position Orientation Groundspeed Altitude Reporting Facility
EDT Latitude Longitude Course Direction KTS MPH feet Rate Location/Type
Tue 03:08:52 AM 49.9840 8.5230 180° South 166 191 1,600  Level FlightAware ADS-B
Tue 03:09:22 AM 49.9560 8.5250 177° South 193 222 2,600 1,964 Climbing FlightAware ADS-B
Tue 03:09:47 AM 49.9320 8.5260 178° South 212 244 3,400 2,291 Climbing FlightAware ADS-B
Tue 03:10:17 AM 49.9010 8.5280 178° South 225 259 4,700 2,400 Climbing FlightAware ADS-B
Tue 03:10:37 AM 49.8820 8.5300 176° South 229 264 5,400 2,550 Climbing FlightAware ADS-B
Tue 03:10:57 AM 49.8600 8.5250 188° South 220 253 6,400 2,400 Climbing FlightAware ADS-B
Tue 03:11:12 AM 49.8450 8.5170 199° South 239 275 6,800 1,867 Climbing FlightAware ADS-B
Tue 03:11:42 AM 49.8130 8.4980 201° Southwest 259 298 7,800 2,073 Climbing FlightAware ADS-B
Tue 03:12:07 AM 49.7840 8.4810 201° Southwest 274 315 8,700 2,100 Climbing FlightAware ADS-B
Tue 03:12:22 AM 49.7660 8.4660 208° Southwest 276 318 9,200 2,000 Climbing FlightAware ADS-B
Tue 03:12:37 AM 49.7550 8.4430 233° Southwest 279 321 9,700 2,000 Climbing FlightAware ADS-B
Tue 03:12:52 AM 49.7510 8.4130 258° West 283 326 10,200 1,200 Climbing FlightAware ADS-B
Tue 03:13:32 AM 49.7670 8.3280 286° West 326 375 10,800 1,650 Climbing FlightAware ADS-B
Tue 03:14:12 AM 49.7840 8.2370 286° West 339 390 12,400 2,400 Climbing FlightAware ADS-B
Tue 03:14:57 AM 49.7990 8.1290 282° West 350 403 14,200 2,329 Climbing FlightAware ADS-B
Tue 03:15:37 AM 49.7970 8.0280 268° West 363 418 15,700 2,259 Climbing FlightAware ADS-B
Tue 03:16:22 AM 49.7900 7.9070 265° West 373 429 17,400 2,047 Climbing FlightAware ADS-B
Tue 03:17:02 AM 49.7790 7.7990 261° West 384 442 18,600 1,800 Climbing FlightAware ADS-B
Tue 03:17:42 AM 49.7720 7.6920 264° West 389 448 19,800 1,906 Climbing FlightAware ADS-B
Tue 03:18:27 AM 49.7640 7.5640 265° West 396 456 21,300 1,906 Climbing FlightAware ADS-B
Tue 03:19:07 AM 49.7570 7.4520 265° West 402 463 22,500 1,725 Climbing FlightAware ADS-B
Tue 03:19:47 AM 49.7490 7.3340 264° West 409 471 23,600 1,624 Climbing FlightAware ADS-B
Tue 03:20:32 AM 49.7400 7.2020 264° West 416 479 24,800 1,553 Climbing FlightAware ADS-B
Tue 03:21:12 AM 49.7320 7.0890 264° West 423 487 25,800 1,271 Climbing FlightAware ADS-B
Tue 03:21:57 AM 49.7230 6.9470 264° West 434 499 26,600 1,129 Climbing FlightAware ADS-B
Tue 03:22:37 AM 49.7140 6.8280 263° West 442 509 27,400 1,350 Climbing FlightAware ADS-B
Tue 03:23:17 AM 49.7050 6.6940 264° West 447 514 28,400 1,200 Climbing FlightAware ADS-B
Tue 03:24:02 AM 49.6940 6.5500 263° West 458 527 29,100 1,059 Climbing FlightAware ADS-B
Tue 03:24:42 AM 49.6850 6.4180 264° West 465 535 29,900 1,200 Climbing FlightAware ADS-B
Tue 03:25:27 AM 49.6740 6.2760 263° West 470 541 30,800 1,553 Climbing FlightAware ADS-B
Tue 03:26:07 AM 49.6640 6.1380 264° West 458 527 32,100 1,906 Climbing FlightAware ADS-B
Tue 03:26:52 AM 49.6520 5.9920 263° West 448 516 33,500 1,412 Climbing FlightAware ADS-B
Tue 03:27:32 AM 49.6420 5.8620 263° West 450 518 34,100 1,059 Climbing FlightAware ADS-B
Tue 03:28:17 AM 49.6310 5.7240 263° West 447 514 35,000 635 Climbing FlightAware ADS-B
Tue 03:28:57 AM 49.6210 5.5970 263° West 447 514 35,000  Level FlightAware ADS-B
Tue 03:29:42 AM 49.6100 5.4580 263° West 448 516 35,000  Level FlightAware ADS-B
Tue 03:30:22 AM 49.5990 5.3250 263° West 449 517 35,000  Level FlightAware ADS-B
Tue 03:31:02 AM 49.5860 5.1990 261° West 456 525 35,000  Level FlightAware ADS-B
Tue 03:31:47 AM 49.5680 5.0670 258° West 456 525 35,000  Level FlightAware ADS-B
Tue 03:32:27 AM 49.5490 4.9330 258° West 456 525 35,000 -1,250 Level FlightAware ADS-B
Tue 03:32:59 AM 49.5349 4.8308 258° West 1 1 33,500  Descending FlightAware UK
Tue 03:33:12 AM 49.5300 4.7990 258° West 457 526 35,000 1,698 Climbing FlightAware ADS-B
Tue 03:33:52 AM 49.5110 4.6640 258° West 457 526 35,000  Level FlightAware ADS-B
Tue 03:34:32 AM 49.4930 4.5430 257° West 457 526 35,000  Level FlightAware ADS-B
Tue 03:35:12 AM 49.4740 4.4120 257° West 456 525 35,000 -1,200 Level FlightAware ADS-B
Tue 03:35:47 AM 49.4571 4.2986 257° West 1 1 33,500  Descending FlightAware UK
Tue 03:35:47 AM 49.4590 4.3050 257° West 456 525 35,000  Climbing FlightAware ADS-B
Tue 03:36:35 AM 49.4344 4.1473 257° West 1 1 33,500  Descending FlightAware UK
Tue 03:36:42 AM 49.4330 4.1310 257° West 456 525 35,000  Climbing FlightAware ADS-B
Tue 03:37:11 AM 49.4175 4.0343 257° West 1 1 33,500  Descending FlightAware UK
Tue 03:37:22 AM 49.4150 4.0100 257° West 457 526 35,000  Climbing FlightAware ADS-B
Tue 03:37:41 AM 49.4035 3.9399 257° West 1 1 33,500  Descending FlightAware UK
Tue 03:38:02 AM 49.3950 3.8770 257° West 457 526 35,000  Climbing FlightAware ADS-B
Tue 03:38:29 AM 49.3807 3.7903 257° West 1 1 33,500  Descending FlightAware UK
Tue 03:38:47 AM 49.3740 3.7380 257° West 459 528 35,000 1,552 Climbing FlightAware ADS-B
Tue 03:39:27 AM 49.3530 3.6040 257° West 459 528 35,000 -1,364 Level FlightAware ADS-B
Tue 03:39:53 AM 49.3394 3.5250 257° West 1 1 33,500  Descending FlightAware UK
Tue 03:40:07 AM 49.3340 3.4850 257° West 460 529 35,000 1,667 Climbing FlightAware ADS-B
Tue 03:40:47 AM 49.3150 3.3590 257° West 460 529 35,000 -1,184 Level FlightAware ADS-B
Tue 03:41:23 AM 49.2945 3.2400 257° West 1 1 33,500  Descending FlightAware UK
Tue 03:41:32 AM 49.2910 3.2080 257° West 462 532 35,000  Climbing FlightAware ADS-B
Tue 03:41:47 AM 49.2823 3.1636 257° West 1 1 33,500 -2,727 Descending FlightAware UK
Tue 03:42:05 AM 49.2734 3.1074 256° West 1 1 33,500 3,000 Level FlightAware UK
Tue 03:42:17 AM 49.2690 3.0680 256° West 461 531 35,000  Climbing FlightAware ADS-B
Tue 03:42:41 AM 49.2540 2.9883 256° West 1 1 33,500  Descending FlightAware UK
Tue 03:42:52 AM 49.2510 2.9550 256° West 461 531 35,000  Climbing FlightAware ADS-B
Tue 03:43:11 AM 49.2398 2.8991 256° West 1 1 33,500 -2,432 Descending FlightAware UK
Tue 03:43:29 AM 49.2303 2.8411 256° West 1 1 33,500 2,903 Level FlightAware UK
Tue 03:43:42 AM 49.2270 2.8000 256° West 457 526 35,000 5,625 Climbing FlightAware ADS-B
Tue 03:43:45 AM 49.2249 2.7852 258° West 457 526 35,000  Level FlightAware ADS-B
Tue 03:43:55 AM 49.2218 2.7522 262° West 453 521 35,000 -3,462 Level FlightAware ADS-B
Tue 03:44:11 AM 49.2173 2.7094 262° West 1 1 33,500 -2,647 Descending FlightAware UK
Tue 03:44:29 AM 49.2169 2.6547 269° West 1 1 33,500  Level FlightAware UK
Tue 03:44:47 AM 49.2175 2.5966 271° West 1 1 33,500 5,000 Level FlightAware UK
Tue 03:44:47 AM 49.2200 2.5930 271° West 441 507 35,000  Climbing FlightAware ADS-B
Tue 03:45:11 AM 49.2215 2.5239 271° West 1 1 33,500 -2,195 Descending FlightAware UK
Tue 03:45:28 AM 49.2242 2.4692 274° West 1 1 33,500 4,286 Level FlightAware UK
Tue 03:45:32 AM 49.2250 2.4550 274° West 440 506 35,000  Climbing FlightAware ADS-B
Tue 03:45:47 AM 49.2263 2.4131 274° West 1 1 33,500 -2,308 Descending FlightAware UK
Tue 03:46:11 AM 49.2292 2.3386 273° West 456 525 33,500 3,600 Level FlightAware UK
Tue 03:46:12 AM 49.2300 2.3280 273° West 440 506 35,000  Climbing FlightAware ADS-B
Tue 03:46:28 AM 49.2312 2.2832 273° West 456 525 33,500  Descending FlightAware UK
Tue 03:46:57 AM 49.2350 2.1940 273° West 440 506 35,000 1,304 Climbing FlightAware ADS-B
Tue 03:47:37 AM 49.2400 2.0670 273° West 440 506 35,000 -1,636 Level FlightAware ADS-B
Tue 03:47:52 AM 49.2416 2.0226 273° West 456 525 33,500  Descending FlightAware UK
Tue 03:48:17 AM 49.2440 1.9390 273° West 441 507 35,000  Climbing FlightAware ADS-B
Tue 03:48:40 AM 49.2448 1.8742 273° West 462 532 33,500  Descending FlightAware UK
Tue 03:49:02 AM 49.2460 1.8090 273° West 440 506 35,000  Climbing FlightAware ADS-B
Tue 03:49:22 AM 49.2460 1.7435 273° West 462 532 33,500 -2,368 Descending FlightAware UK
Tue 03:49:40 AM 49.2468 1.6876 271° West 460 529 33,500 4,500 Level FlightAware UK
Tue 03:49:42 AM 49.2480 1.6820 271° West 438 504 35,000  Climbing FlightAware ADS-B
Tue 03:50:04 AM 49.2479 1.6134 271° West 460 529 33,500 -2,250 Descending FlightAware UK
Tue 03:50:22 AM 49.2489 1.5588 272° West 460 529 33,500 3,913 Level FlightAware UK
Tue 03:50:27 AM 49.2500 1.5400 272° West 435 501 35,000  Climbing FlightAware ADS-B
Tue 03:50:52 AM 49.2504 1.4667 272° West 458 527 33,500  Descending FlightAware UK
Tue 03:51:07 AM 49.2520 1.4180 272° West 433 498 35,000  Climbing FlightAware ADS-B
Tue 03:51:22 AM 49.2519 1.3752 272° West 458 527 33,500 -2,727 Descending FlightAware UK
Tue 03:51:40 AM 49.2527 1.3211 271° West 456 525 33,500  Level FlightAware UK
Tue 03:51:58 AM 49.2535 1.2657 271° West 456 525 33,500 2,813 Level FlightAware UK
Tue 03:52:12 AM 49.2550 1.2280 271° West 430 495 35,000  Climbing FlightAware ADS-B
Tue 03:52:40 AM 49.2549 1.1384 271° West 454 522 33,500  Descending FlightAware UK
Tue 03:53:07 AM 49.2570 1.0530 271° West 429 494 35,000  Climbing FlightAware ADS-B
Tue 03:53:10 AM 49.2559 1.0483 271° West 452 520 33,500 -6,000 Descending FlightAware UK
Tue 03:53:22 AM 49.2563 1.0120 271° West 452 520 33,500  Level FlightAware UK
Tue 03:53:40 AM 49.2568 0.9576 271° West 452 520 33,500  Level FlightAware UK
Tue 03:54:04 AM 49.2573 0.8853 271° West 452 520 33,500 3,333 Level FlightAware UK
Tue 03:54:07 AM 49.2590 0.8740 271° West 428 493 35,000  Climbing FlightAware ADS-B
Tue 03:54:28 AM 49.2579 0.8136 271° West 452 520 33,500 -2,308 Descending FlightAware UK
Tue 03:54:46 AM 49.2584 0.7595 271° West 452 520 33,500 2,308 Level FlightAware UK
Tue 03:55:07 AM 49.2600 0.6950 271° West 427 491 35,000  Climbing FlightAware ADS-B
Tue 03:55:28 AM 49.2594 0.6323 271° West 452 520 33,500  Descending FlightAware UK
Tue 03:55:47 AM 49.2610 0.5710 271° West 427 491 35,000  Climbing FlightAware ADS-B
Tue 03:56:04 AM 49.2601 0.5241 271° West 452 520 33,500 -2,195 Descending FlightAware UK
Tue 03:56:28 AM 49.2605 0.4515 271° West 452 520 33,500  Level FlightAware UK
Tue 03:56:45 AM 49.2608 0.3979 270° West 452 520 33,500 3,103 Level FlightAware UK
Tue 03:56:57 AM 49.2630 0.3600 270° West 427 491 35,000  Climbing FlightAware ADS-B
Tue 03:57:22 AM 49.2615 0.2889 270° West 452 520 33,500 -2,143 Descending FlightAware UK
Tue 03:57:39 AM 49.2616 0.2353 270° West 452 520 33,500  Level FlightAware UK
Tue 03:57:57 AM 49.2617 0.1818 270° West 452 520 33,500  Level FlightAware UK
Tue 03:58:15 AM 49.2618 0.1270 270° West 452 520 33,500 3,000 Level FlightAware UK
Tue 03:58:27 AM 49.2640 0.0880 270° West 428 493 35,000  Climbing FlightAware ADS-B
Tue 03:58:45 AM 49.2619 0.0371 270° West 452 520 33,500 -1,250 Descending FlightAware UK
Tue 03:59:39 AM 49.2622 -0.1257 270° West 454 522 33,500 1,452 Level FlightAware UK
Tue 03:59:47 AM 49.2640 -0.1480 270° West 428 493 35,000  Climbing FlightAware ADS-B
Tue 04:00:15 AM 49.2621 -0.2346 270° West 454 522 33,500  Descending FlightAware UK
Tue 04:00:17 AM 49.2640 -0.2270 270° West 428 493 35,000  Climbing FlightAware ADS-B
Tue 04:00:33 AM 49.2621 -0.2890 270° West 456 525 33,500  Descending FlightAware UK
Tue 04:01:37 AM 49.2640 -0.4640 270° West 428 493 35,000  Climbing FlightAware ADS-B
Tue 04:01:57 AM 49.2617 -0.5426 270° West 456 525 33,500  Descending FlightAware UK
Tue 04:02:17 AM 49.2630 -0.5940 270° West 428 493 35,000  Climbing FlightAware ADS-B
Tue 04:02:45 AM 49.2612 -0.6872 270° West 456 525 33,500  Descending FlightAware UK
Tue 04:03:02 AM 49.2630 -0.7330 270° West 428 493 35,000  Climbing FlightAware ADS-B
Tue 04:03:32 AM 49.2606 -0.8319 270° West 456 525 33,500  Descending FlightAware UK
Tue 04:03:42 AM 49.2620 -0.8540 270° West 428 493 35,000  Climbing FlightAware ADS-B
Tue 04:04:02 AM 49.2600 -0.9226 270° West 456 525 33,500 -2,368 Descending FlightAware UK
Tue 04:04:20 AM 49.2596 -0.9769 269° West 454 522 33,500 4,500 Level FlightAware UK
Tue 04:04:22 AM 49.2610 -0.9770 269° West 428 493 35,000  Climbing FlightAware ADS-B
Tue 04:04:38 AM 49.2592 -1.0313 269° West 454 522 33,500  Descending FlightAware UK
Tue 04:05:07 AM 49.2600 -1.1090 269° West 428 493 35,000  Climbing FlightAware ADS-B
Tue 04:05:44 AM 49.2577 -1.2301 269° West 454 522 33,500  Descending FlightAware UK
Tue 04:05:47 AM 49.2590 -1.2320 269° West 428 493 35,000  Climbing FlightAware ADS-B
Tue 04:06:08 AM 49.2571 -1.3026 269° West 454 522 33,500  Descending FlightAware UK
Tue 04:06:22 AM 49.2580 -1.3360 269° West 428 493 35,000  Climbing FlightAware ADS-B
Tue 04:06:44 AM 49.2565 -1.4114 269° West 454 522 33,500  Descending FlightAware UK
Tue 04:07:12 AM 49.2570 -1.4850 269° West 428 493 35,000  Climbing FlightAware ADS-B
Tue 04:07:38 AM 49.2549 -1.5741 269° West 454 522 33,500  Descending FlightAware UK
Tue 04:07:47 AM 49.2550 -1.5970 269° West 428 493 35,000  Climbing FlightAware ADS-B
Tue 04:08:02 AM 49.2538 -1.6460 269° West 454 522 33,500 -2,000 Descending FlightAware UK
Tue 04:08:32 AM 49.2526 -1.7373 269° West 454 522 33,500 2,571 Level FlightAware UK
Tue 04:08:37 AM 49.2530 -1.7430 269° West 428 493 35,000  Climbing FlightAware ADS-B
Tue 04:08:56 AM 49.2515 -1.8092 269° West 454 522 33,500 -2,432 Descending FlightAware UK
Tue 04:09:14 AM 49.2509 -1.8635 269° West 452 520 33,500 3,462 Level FlightAware UK
Tue 04:09:22 AM 49.2510 -1.8860 269° West 428 493 35,000 1,875 Climbing FlightAware ADS-B
Tue 04:10:02 AM 49.2490 -2.0020 269° West 428 493 35,000 -1,184 Level FlightAware ADS-B
Tue 04:10:38 AM 49.2466 -2.1186 269° West 452 520 33,500  Descending FlightAware UK
Tue 04:10:42 AM 49.2470 -2.1200 269° West 429 494 35,000  Climbing FlightAware ADS-B
Tue 04:11:01 AM 49.2455 -2.1911 269° West 452 520 33,500 -2,432 Descending FlightAware UK
Tue 04:11:19 AM 49.2449 -2.2459 269° West 452 520 33,500 3,462 Level FlightAware UK
Tue 04:11:27 AM 49.2450 -2.2650 269° West 429 494 35,000  Climbing FlightAware ADS-B
Tue 04:11:43 AM 49.2436 -2.3190 269° West 454 522 33,500 -2,647 Descending FlightAware UK
Tue 04:12:01 AM 49.2427 -2.3739 269° West 456 525 33,500 3,750 Level FlightAware UK
Tue 04:12:07 AM 49.2430 -2.3770 269° West 430 495 35,000 1,765 Climbing FlightAware ADS-B
Tue 04:12:52 AM 49.2400 -2.5220 268° West 430 495 35,000 -1,250 Level FlightAware ADS-B
Tue 04:13:19 AM 49.2377 -2.6100 268° West 458 527 33,500  Descending FlightAware UK
Tue 04:13:32 AM 49.2370 -2.6430 268° West 429 494 35,000  Climbing FlightAware ADS-B
Tue 04:14:01 AM 49.2354 -2.7372 268° West 458 527 33,500  Descending FlightAware UK
Tue 04:14:12 AM 49.2350 -2.7580 268° West 429 494 35,000  Climbing FlightAware ADS-B
Tue 04:14:31 AM 49.2331 -2.8280 268° West 458 527 33,500 -2,432 Descending FlightAware UK
Tue 04:14:49 AM 49.2318 -2.8818 268° West 456 525 33,500 3,462 Level FlightAware UK
Tue 04:14:57 AM 49.2310 -2.9000 268° West 428 493 35,000  Climbing FlightAware ADS-B
Tue 04:15:13 AM 49.2301 -2.9543 268° West 456 525 33,500 -2,647 Descending FlightAware UK
Tue 04:15:31 AM 49.2291 -3.0089 268° West 456 525 33,500 3,750 Level FlightAware UK
Tue 04:15:37 AM 49.2280 -3.0170 268° West 429 494 35,000  Climbing FlightAware ADS-B
Tue 04:16:13 AM 49.2259 -3.1354 268° West 456 525 33,500  Descending FlightAware UK
Tue 04:16:22 AM 49.2250 -3.1580 268° West 428 493 35,000  Climbing FlightAware ADS-B
Tue 04:16:37 AM 49.2241 -3.2081 268° West 456 525 33,500 -2,727 Descending FlightAware UK
Tue 04:16:55 AM 49.2226 -3.2625 268° West 456 525 33,500 3,600 Level FlightAware UK
Tue 04:17:02 AM 49.2220 -3.2720 268° West 429 494 35,000  Climbing FlightAware ADS-B
Tue 04:17:19 AM 49.2207 -3.3352 268° West 458 527 33,500  Descending FlightAware UK
Tue 04:17:42 AM 49.2180 -3.3980 268° West 428 493 35,000 1,324 Climbing FlightAware ADS-B
Tue 04:18:27 AM 49.2140 -3.5350 267° West 427 491 35,000 -1,343 Level FlightAware ADS-B
Tue 04:18:49 AM 49.2131 -3.6064 267° West 460 529 33,500  Descending FlightAware UK
Tue 04:19:07 AM 49.2110 -3.6540 267° West 427 491 35,000  Climbing FlightAware ADS-B
Tue 04:19:25 AM 49.2098 -3.7149 267° West 460 529 33,500 -2,500 Descending FlightAware UK
Tue 04:19:43 AM 49.2081 -3.7691 267° West 458 527 33,500 3,333 Level FlightAware UK
Tue 04:19:52 AM 49.2060 -3.7900 267° West 426 490 35,000  Climbing FlightAware ADS-B
Tue 04:20:12 AM 49.2054 -3.8587 267° West 458 527 33,500  Descending FlightAware UK
Tue 04:20:32 AM 49.2020 -3.9100 267° West 425 489 35,000  Climbing FlightAware ADS-B
Tue 04:20:48 AM 49.2021 -3.9667 267° West 456 525 33,500 -2,647 Descending FlightAware UK
Tue 04:21:06 AM 49.2004 -4.0205 267° West 456 525 33,500 3,103 Level FlightAware UK
Tue 04:21:17 AM 49.1980 -4.0430 267° West 424 488 35,000  Climbing FlightAware ADS-B
Tue 04:21:42 AM 49.1967 -4.1282 267° West 454 522 33,500  Descending FlightAware UK
Tue 04:21:57 AM 49.1940 -4.1630 267° West 424 488 35,000  Climbing FlightAware ADS-B
Tue 04:22:18 AM 49.1929 -4.2357 267° West 454 522 33,500 -2,308 Descending FlightAware UK
Tue 04:22:36 AM 49.1910 -4.2894 267° West 454 522 33,500 3,750 Level FlightAware UK
Tue 04:22:42 AM 49.1890 -4.2980 267° West 423 487 35,000  Climbing FlightAware ADS-B
Tue 04:23:06 AM 49.1878 -4.3789 267° West 452 520 33,500  Descending FlightAware UK
Tue 04:23:22 AM 49.1850 -4.4150 267° West 422 486 35,000  Climbing FlightAware ADS-B
Tue 04:23:42 AM 49.1841 -4.4861 267° West 452 520 33,500  Descending FlightAware UK
Tue 04:24:02 AM 49.1800 -4.5360 267° West 422 486 35,000  Climbing FlightAware ADS-B
Tue 04:24:18 AM 49.1800 -4.5932 267° West 452 520 33,500 -2,647 Descending FlightAware UK
Tue 04:24:36 AM 49.1779 -4.6468 267° West 452 520 33,500 3,103 Level FlightAware UK
Tue 04:24:47 AM 49.1750 -4.6700 267° West 422 486 35,000  Climbing FlightAware ADS-B
Tue 04:25:06 AM 49.1744 -4.7361 267° West 454 522 33,500 -2,432 Descending FlightAware UK
Tue 04:25:24 AM 49.1723 -4.7890 267° West 456 525 33,500 4,286 Level FlightAware UK
Tue 04:25:27 AM 49.1700 -4.7910 267° West 422 486 35,000  Climbing FlightAware ADS-B
Tue 04:25:42 AM 49.1702 -4.8425 267° West 456 525 33,500 -2,727 Descending FlightAware UK
Tue 04:26:00 AM 49.1680 -4.8961 266° West 454 522 33,500  Level FlightAware UK
Tue 04:26:18 AM 49.1658 -4.9496 266° West 456 525 33,500 2,432 Level FlightAware UK
Tue 04:26:37 AM 49.1620 -4.9870 266° West 421 484 35,000  Climbing FlightAware ADS-B
Tue 04:26:54 AM 49.1615 -5.0564 266° West 456 525 33,500 -2,571 Descending FlightAware UK
Tue 04:27:12 AM 49.1592 -5.1098 266° West 454 522 33,500 3,913 Level FlightAware UK
Tue 04:27:17 AM 49.1570 -5.1100 266° West 421 484 35,000  Climbing FlightAware ADS-B
Tue 04:27:36 AM 49.1561 -5.1810 266° West 456 525 33,500 -2,432 Descending FlightAware UK
Tue 04:27:54 AM 49.1538 -5.2344 266° West 454 522 33,500 3,462 Level FlightAware UK
Tue 04:28:02 AM 49.1510 -5.2420 266° West 422 486 35,000  Climbing FlightAware ADS-B
Tue 04:28:18 AM 49.1507 -5.3056 266° West 454 522 33,500  Descending FlightAware UK
Tue 04:28:42 AM 49.1450 -5.3610 266° West 422 486 35,000  Climbing FlightAware ADS-B
Tue 04:29:00 AM 49.1452 -5.4299 266° West 456 525 33,500 -2,500 Descending FlightAware UK
Tue 04:29:18 AM 49.1428 -5.4832 266° West 456 525 33,500 3,333 Level FlightAware UK
Tue 04:29:27 AM 49.1390 -5.4970 266° West 421 484 35,000  Climbing FlightAware ADS-B
Tue 04:29:42 AM 49.1397 -5.5542 266° West 456 525 33,500 -2,727 Descending FlightAware UK
Tue 04:30:00 AM 49.1371 -5.6075 266° West 456 525 33,500 3,600 Level FlightAware UK
Tue 04:30:07 AM 49.1340 -5.6090 266° West 422 486 35,000  Climbing FlightAware ADS-B
Tue 04:30:24 AM 49.1337 -5.6785 266° West 458 527 33,500 -2,571 Descending FlightAware UK
Tue 04:30:42 AM 49.1311 -5.7318 266° West 458 527 33,500 3,214 Level FlightAware UK
Tue 04:30:52 AM 49.1270 -5.7480 266° West 423 487 35,000  Climbing FlightAware ADS-B
Tue 04:31:12 AM 49.1268 -5.8207 266° West 458 527 33,500  Descending FlightAware UK
Tue 04:31:32 AM 49.1210 -5.8670 266° West 424 488 35,000  Climbing FlightAware ADS-B
Tue 04:31:48 AM 49.1217 -5.9271 266° West 458 527 33,500 -2,647 Descending FlightAware UK
Tue 04:32:06 AM 49.1190 -5.9807 266° West 458 527 33,500 3,750 Level FlightAware UK
Tue 04:32:12 AM 49.1150 -5.9850 266° West 424 488 35,000  Climbing FlightAware ADS-B
Tue 04:32:30 AM 49.1155 -6.0522 266° West 460 529 33,500 -2,500 Descending FlightAware UK
Tue 04:32:48 AM 49.1127 -6.1058 266° West 460 529 33,500 3,333 Level FlightAware UK
Tue 04:32:57 AM 49.1080 -6.1220 266° West 425 489 35,000  Climbing FlightAware ADS-B
Tue 04:33:12 AM 49.1090 -6.1774 266° West 460 529 33,500 -2,727 Descending FlightAware UK
Tue 04:33:30 AM 49.1062 -6.2310 265° West 458 527 33,500 3,600 Level FlightAware UK
Tue 04:33:37 AM 49.1020 -6.2420 265° West 425 489 35,000  Climbing FlightAware ADS-B
Tue 04:33:54 AM 49.1026 -6.3026 265° West 458 527 33,500 -2,571 Descending FlightAware UK
Tue 04:34:12 AM 49.1026 -6.3565 270° West 460 529 33,500 3,913 Level FlightAware UK
Tue 04:34:17 AM 49.0990 -6.3610 270° West 425 489 35,000  Climbing FlightAware ADS-B
Tue 04:34:36 AM 49.1029 -6.4283 270° West 460 529 33,500 -2,432 Descending FlightAware UK
Tue 04:34:54 AM 49.1039 -6.4820 272° West 460 529 33,500 4,286 Level FlightAware UK
Tue 04:34:57 AM 49.1000 -6.4800 272° West 424 488 35,000  Climbing FlightAware ADS-B
Tue 04:35:12 AM 49.1052 -6.5358 272° West 458 527 33,500 -2,727 Descending FlightAware UK
Tue 04:35:30 AM 49.1068 -6.5895 273° West 460 529 33,500 3,000 Level FlightAware UK
Tue 04:35:42 AM 49.1040 -6.6140 273° West 424 488 35,000  Climbing FlightAware ADS-B
Tue 04:36:00 AM 49.1096 -6.6789 273° West 460 529 33,500 -2,500 Descending FlightAware UK
Tue 04:36:18 AM 49.1111 -6.7325 273° West 460 529 33,500 4,091 Level FlightAware UK
Tue 04:36:22 AM 49.1070 -6.7340 273° West 424 488 35,000  Climbing FlightAware ADS-B
Tue 04:36:42 AM 49.1130 -6.8042 273° West 460 529 33,500 -2,368 Descending FlightAware UK
Tue 04:37:00 AM 49.1143 -6.8579 272° West 460 529 33,500 4,500 Level FlightAware UK
Tue 04:37:02 AM 49.1100 -6.8540 272° West 424 488 35,000  Climbing FlightAware ADS-B
Tue 04:37:18 AM 49.1155 -6.9115 272° West 460 529 33,500 -2,647 Descending FlightAware UK
Tue 04:37:36 AM 49.1166 -6.9645 272° West 462 532 33,500 3,103 Level FlightAware UK
Tue 04:37:47 AM 49.1130 -6.9890 272° West 424 488 35,000  Climbing FlightAware ADS-B
Tue 04:38:06 AM 49.1183 -7.0539 272° West 460 529 33,500 -2,432 Descending FlightAware UK
Tue 04:38:24 AM 49.1195 -7.1074 272° West 462 532 33,500 3,462 Level FlightAware UK
Tue 04:38:32 AM 49.1160 -7.1210 272° West 423 487 35,000  Climbing FlightAware ADS-B
Tue 04:38:48 AM 49.1207 -7.1788 272° West 462 532 33,500 -2,647 Descending FlightAware UK
Tue 04:39:06 AM 49.1216 -7.2322 271° West 462 532 33,500 3,750 Level FlightAware UK
Tue 04:39:12 AM 49.1180 -7.2340 271° West 422 486 35,000  Climbing FlightAware ADS-B
Tue 04:39:30 AM 49.1228 -7.3034 271° West 460 529 33,500 -2,500 Descending FlightAware UK
Tue 04:39:48 AM 49.1237 -7.3568 271° West 462 532 33,500 4,091 Level FlightAware UK
Tue 04:39:52 AM 49.1200 -7.3490 271° West 421 484 35,000  Climbing FlightAware ADS-B
Tue 04:40:12 AM 49.1248 -7.4278 271° West 462 532 33,500 -2,368 Descending FlightAware UK
Tue 04:40:30 AM 49.1256 -7.4809 271° West 460 529 33,500 3,600 Level FlightAware UK
Tue 04:40:37 AM 49.1220 -7.4830 271° West 419 482 35,000  Climbing FlightAware ADS-B
Tue 04:40:54 AM 49.1267 -7.5516 271° West 458 527 33,500 -2,571 Descending FlightAware UK
Tue 04:41:12 AM 49.1277 -7.6045 272° West 458 527 33,500 3,913 Level FlightAware UK
Tue 04:41:17 AM 49.1240 -7.6120 272° West 418 481 35,000  Climbing FlightAware ADS-B
Tue 04:41:36 AM 49.1287 -7.6748 272° West 458 527 33,500 -2,432 Descending FlightAware UK
Tue 04:41:54 AM 49.1293 -7.7275 271° West 456 525 33,500 3,462 Level FlightAware UK
Tue 04:42:02 AM 49.1250 -7.7410 271° West 417 480 35,000  Climbing FlightAware ADS-B
Tue 04:42:18 AM 49.1303 -7.7978 271° West 456 525 33,500 -2,647 Descending FlightAware UK
Tue 04:42:36 AM 49.1309 -7.8504 271° West 458 527 33,500 3,750 Level FlightAware UK
Tue 04:42:42 AM 49.1270 -7.8640 271° West 417 480 35,000  Climbing FlightAware ADS-B
Tue 04:43:00 AM 49.1318 -7.9206 271° West 456 525 33,500 -2,500 Descending FlightAware UK
Tue 04:43:18 AM 49.1324 -7.9733 271° West 454 522 33,500 4,091 Level FlightAware UK
Tue 04:43:22 AM 49.1280 -7.9790 271° West 417 480 35,000  Climbing FlightAware ADS-B
Tue 04:43:42 AM 49.1332 -8.0434 271° West 454 522 33,500 -2,368 Descending FlightAware UK
Tue 04:44:00 AM 49.1338 -8.0954 271° West 454 522 33,500 3,600 Level FlightAware UK
Tue 04:44:07 AM 49.1300 -8.1110 271° West 417 480 35,000  Climbing FlightAware ADS-B
Tue 04:44:24 AM 49.1347 -8.1656 271° West 456 525 33,500 -2,571 Descending FlightAware UK
Tue 04:44:42 AM 49.1352 -8.2183 271° West 456 525 33,500 3,913 Level FlightAware UK
Tue 04:44:47 AM 49.1310 -8.2280 271° West 417 480 35,000  Climbing FlightAware ADS-B
Tue 04:45:06 AM 49.1357 -8.2886 271° West 456 525 33,500 -2,432 Descending FlightAware UK
Tue 04:45:24 AM 49.1362 -8.3412 271° West 456 525 33,500 4,286 Level FlightAware UK
Tue 04:45:27 AM 49.1320 -8.3440 271° West 417 480 35,000  Climbing FlightAware ADS-B
Tue 04:45:42 AM 49.1366 -8.3939 271° West 458 527 33,500 -2,727 Descending FlightAware UK
Tue 04:46:00 AM 49.1370 -8.4466 271° West 456 525 33,500 3,600 Level FlightAware UK
Tue 04:46:07 AM 49.1330 -8.4630 271° West 417 480 35,000  Climbing FlightAware ADS-B
Tue 04:46:24 AM 49.1375 -8.5169 271° West 456 525 33,500 -2,571 Descending FlightAware UK
Tue 04:46:42 AM 49.1378 -8.5696 271° West 458 527 33,500 3,214 Level FlightAware UK
Tue 04:46:52 AM 49.1340 -8.5950 271° West 417 480 35,000  Climbing FlightAware ADS-B
Tue 04:47:12 AM 49.1385 -8.6573 271° West 458 527 33,500 -2,368 Descending FlightAware UK
Tue 04:47:30 AM 49.1388 -8.7100 270° West 456 525 33,500 3,600 Level FlightAware UK
Tue 04:47:37 AM 49.1350 -8.7170 270° West 417 480 35,000  Climbing FlightAware ADS-B
Tue 04:47:54 AM 49.1391 -8.7803 270° West 458 527 33,500 -2,571 Descending FlightAware UK
Tue 04:48:12 AM 49.1393 -8.8329 270° West 456 525 33,500 2,368 Level FlightAware UK
Tue 04:48:32 AM 49.1350 -8.8830 270° West 418 481 35,000  Climbing FlightAware ADS-B
Tue 04:48:48 AM 49.1396 -8.9384 270° West 460 529 33,500 -2,647 Descending FlightAware UK
Tue 04:49:06 AM 49.1397 -8.9912 270° West 460 529 33,500 2,308 Level FlightAware UK
Tue 04:49:27 AM 49.1360 -9.0400 270° West 418 481 35,000 1,475 Climbing FlightAware ADS-B
Tue 04:50:07 AM 49.1360 -9.1400 270° West 418 481 35,000  Level FlightAware ADS-B
Tue 04:50:47 AM 49.1360 -9.2410 270° West 418 481 35,000  Level FlightAware ADS-B
Tue 04:51:27 AM 49.1360 -9.3410 270° West 418 481 35,000  Level FlightAware ADS-B
Tue 04:52:17 AM 49.1360 -9.4670 270° West 418 481 35,000  Level FlightAware ADS-B
Tue 04:52:57 AM 49.1360 -9.5670 270° West 418 481 35,000  Level FlightAware ADS-B
Tue 04:53:37 AM 49.1360 -9.6680 270° West 418 481 35,000  Level FlightAware ADS-B
Tue 04:54:17 AM 49.1360 -9.7680 270° West 418 481 35,000  Level FlightAware ADS-B
Tue 04:54:57 AM 49.1360 -9.8690 270° West 418 481 35,000  Level FlightAware ADS-B
Tue 04:55:47 AM 49.1360 -9.9940 270° West 418 481 35,000  Level FlightAware ADS-B
Tue 04:56:27 AM 49.1360 -10.0950 270° West 418 481 35,000  Level FlightAware ADS-B
Tue 04:57:07 AM 49.1360 -10.1950 270° West 418 481 35,000  Level FlightAware ADS-B
Tue 04:57:47 AM 49.1360 -10.2960 270° West 418 481 35,000  Level FlightAware ADS-B
Tue 04:58:27 AM 49.1360 -10.3960 270° West 418 481 35,000 17 Level FlightAware ADS-B
Tue 05:01:00 AM 49.2017 -10.7949 284° West  Level Estimated
Tue 05:02:00 AM 49.2271 -10.9516 284° West  Level Estimated
Tue 05:03:00 AM 49.2522 -11.1085 284° West  Level Estimated
Tue 05:04:00 AM 49.2772 -11.2655 284° West  Level Estimated
Tue 05:05:00 AM 49.3019 -11.4227 284° West  Level Estimated
Tue 05:06:00 AM 49.3264 -11.5800 284° West  Level Estimated
Tue 05:07:00 AM 49.3507 -11.7375 283° West  Level Estimated
Tue 05:08:00 AM 49.3749 -11.8952 283° West  Level Estimated
Tue 05:09:00 AM 49.3987 -12.0530 283° West  Level Estimated
Tue 05:10:00 AM 49.4224 -12.2110 283° West  Level Estimated
Tue 05:11:00 AM 49.4465 -12.3733 283° West  Level Estimated
Tue 05:12:00 AM 49.4703 -12.5358 283° West  Level Estimated
Tue 05:13:00 AM 49.4939 -12.6985 283° West  Level Estimated
Tue 05:14:00 AM 49.5173 -12.8613 283° West  Level Estimated
Tue 05:15:00 AM 49.5405 -13.0242 282° West  Level Estimated
Tue 05:16:00 AM 49.5634 -13.1874 282° West  Level Estimated
Tue 05:17:00 AM 49.5861 -13.3506 282° West  Level Estimated
Tue 05:18:00 AM 49.6086 -13.5140 282° West  Level Estimated
Tue 05:19:00 AM 49.6309 -13.6776 282° West  Level Estimated
Tue 05:20:00 AM 49.6529 -13.8413 282° West  Level Estimated
Tue 05:21:00 AM 49.6746 -14.0052 282° West  Level Estimated
Tue 05:22:00 AM 49.6962 -14.1692 282° West  Level Estimated
Tue 05:23:00 AM 49.7175 -14.3334 281° West  Level Estimated
Tue 05:24:00 AM 49.7386 -14.4977 281° West  Level Estimated
Tue 05:25:00 AM 49.7595 -14.6621 281° West  Level Estimated
Tue 05:26:00 AM 49.7801 -14.8267 281° West  Level Estimated
Tue 05:27:00 AM 49.8005 -14.9914 281° West  Level Estimated
Tue 05:28:00 AM 49.8206 -15.1563 281° West  Level Estimated
Tue 05:29:00 AM 49.8406 -15.3213 281° West  Level Estimated
Tue 05:30:00 AM 49.8602 -15.4864 281° West  Level Estimated
Tue 05:31:00 AM 49.8797 -15.6517 280° West  Level Estimated
Tue 05:32:00 AM 49.8989 -15.8171 280° West  Level Estimated
Tue 05:33:00 AM 49.9179 -15.9826 280° West  Level Estimated
Tue 05:34:00 AM 49.9366 -16.1483 280° West  Level Estimated
Tue 05:35:00 AM 49.9552 -16.3141 280° West  Level Estimated
Tue 05:36:00 AM 49.9734 -16.4800 280° West  Level Estimated
Tue 05:37:00 AM 49.9915 -16.6460 280° West  Level Estimated
Tue 05:38:00 AM 50.0093 -16.8122 280° West  Level Estimated
Tue 05:39:00 AM 50.0268 -16.9785 279° West  Level Estimated
Tue 05:40:00 AM 50.0442 -17.1449 279° West  Level Estimated
Tue 05:41:00 AM 50.0612 -17.3114 279° West  Level Estimated
Tue 05:42:00 AM 50.0781 -17.4781 279° West  Level Estimated
Tue 05:43:00 AM 50.0947 -17.6448 279° West  Level Estimated
Tue 05:44:00 AM 50.1111 -17.8117 279° West  Level Estimated
Tue 05:45:00 AM 50.1272 -17.9787 279° West  Level Estimated
Tue 05:46:00 AM 50.1429 -18.1439 279° West  Level Estimated
Tue 05:47:00 AM 50.1584 -18.3092 278° West  Level Estimated
Tue 05:48:00 AM 50.1736 -18.4747 278° West  Level Estimated
Tue 05:49:00 AM 50.1886 -18.6402 278° West  Level Estimated
Tue 05:50:00 AM 50.2034 -18.8058 278° West  Level Estimated
Tue 05:51:00 AM 50.2179 -18.9716 278° West  Level Estimated
Tue 05:52:00 AM 50.2323 -19.1374 278° West  Level Estimated
Tue 05:53:00 AM 50.2463 -19.3034 278° West  Level Estimated
Tue 05:54:00 AM 50.2602 -19.4694 277° West  Level Estimated
Tue 05:55:00 AM 50.2737 -19.6355 277° West  Level Estimated
Tue 05:56:00 AM 50.2871 -19.8017 277° West  Level Estimated
Tue 05:57:00 AM 50.3002 -19.9680 277° West  Level Estimated
Tue 05:57:00 AM 49.0000 -20.0000 274° West 414 476 36,000  Level ETMS Enhanced Traffic Management System
Tue 05:58:00 AM 50.3131 -20.1345 277° West  Level Estimated
Tue 05:59:00 AM 50.3257 -20.3009 277° West  Level Estimated
Tue 06:00:00 AM 50.3382 -20.4675 277° West  Level Estimated
Tue 06:01:00 AM 50.3503 -20.6342 277° West  Level Estimated
Tue 06:02:00 AM 50.3623 -20.8009 276° West  Level Estimated
Tue 06:03:00 AM 49.0625 -21.7517 272° West 414 476 36,000  Level FlightAware Transoceanic
Tue 06:04:00 AM 49.0673 -21.9270 272° West 414 476 36,000  Level FlightAware Transoceanic
Tue 06:05:00 AM 49.0718 -22.1025 272° West 414 476 36,000  Level FlightAware Transoceanic
Tue 06:06:00 AM 49.0761 -22.2779 272° West 414 476 36,000  Level FlightAware Transoceanic
Tue 06:07:00 AM 49.0801 -22.4534 272° West 414 476 36,000  Level FlightAware Transoceanic
Tue 06:08:00 AM 49.0838 -22.6289 272° West 414 476 36,000  Level FlightAware Transoceanic
Tue 06:09:00 AM 49.0873 -22.8044 272° West 414 476 36,000  Level FlightAware Transoceanic
Tue 06:10:00 AM 49.0905 -22.9800 272° West 414 476 36,000  Level FlightAware Transoceanic
Tue 06:11:00 AM 49.0934 -23.1556 271° West 414 476 36,000  Level FlightAware Transoceanic
Tue 06:12:00 AM 49.0961 -23.3312 271° West 414 476 36,000  Level FlightAware Transoceanic
Tue 06:13:00 AM 49.0985 -23.5068 271° West 414 476 36,000  Level FlightAware Transoceanic
Tue 06:14:00 AM 49.1006 -23.6824 271° West 414 476 36,000  Level FlightAware Transoceanic
Tue 06:15:00 AM 49.1025 -23.8581 271° West 414 476 36,000  Level FlightAware Transoceanic
Tue 06:16:00 AM 49.1041 -24.0337 271° West 414 476 36,000  Level FlightAware Transoceanic
Tue 06:17:00 AM 49.1054 -24.2094 271° West 414 476 36,000  Level FlightAware Transoceanic
Tue 06:18:00 AM 49.1065 -24.3851 270° West 414 476 36,000  Level FlightAware Transoceanic
Tue 06:19:00 AM 49.1073 -24.5608 270° West 414 476 36,000  Level FlightAware Transoceanic
Tue 06:20:00 AM 49.1078 -24.7365 270° West 414 476 36,000  Level FlightAware Transoceanic
Tue 06:21:00 AM 49.1081 -24.9121 270° West 414 476 36,000  Level FlightAware Transoceanic
Tue 06:22:00 AM 49.1081 -25.0879 270° West 414 476 36,000  Level FlightAware Transoceanic
Tue 06:23:00 AM 49.1078 -25.2635 270° West 414 476 36,000  Level FlightAware Transoceanic
Tue 06:24:00 AM 49.1073 -25.4392 270° West 414 476 36,000  Level FlightAware Transoceanic
Tue 06:25:00 AM 49.1065 -25.6149 270° West 414 476 36,000  Level FlightAware Transoceanic
Tue 06:26:00 AM 49.1054 -25.7906 269° West 414 476 36,000  Level FlightAware Transoceanic
Tue 06:27:00 AM 49.1041 -25.9663 269° West 414 476 36,000  Level FlightAware Transoceanic
Tue 06:28:00 AM 49.1025 -26.1419 269° West 414 476 36,000  Level FlightAware Transoceanic
Tue 06:29:00 AM 49.1006 -26.3176 269° West 414 476 36,000  Level FlightAware Transoceanic
Tue 06:30:00 AM 49.0985 -26.4932 269° West 414 476 36,000  Level FlightAware Transoceanic
Tue 06:31:00 AM 49.0961 -26.6688 269° West 414 476 36,000  Level FlightAware Transoceanic
Tue 06:32:00 AM 49.0934 -26.8444 269° West 414 476 36,000  Level FlightAware Transoceanic
Tue 06:33:00 AM 49.0905 -27.0200 268° West 414 476 36,000  Level FlightAware Transoceanic
Tue 06:34:00 AM 49.0873 -27.1956 268° West 414 476 36,000  Level FlightAware Transoceanic
Tue 06:35:00 AM 49.0838 -27.3711 268° West 414 476 36,000  Level FlightAware Transoceanic
Tue 06:36:00 AM 49.0801 -27.5466 268° West 414 476 36,000  Level FlightAware Transoceanic
Tue 06:37:00 AM 49.0761 -27.7221 268° West 414 476 36,000  Level FlightAware Transoceanic
Tue 06:38:00 AM 49.0718 -27.8975 268° West 414 476 36,000  Level FlightAware Transoceanic
Tue 06:39:00 AM 49.0673 -28.0730 268° West 414 476 36,000  Level FlightAware Transoceanic
Tue 06:40:00 AM 49.0625 -28.2483 268° West 414 476 36,000  Level FlightAware Transoceanic
Tue 06:41:00 AM 49.0575 -28.4237 267° West 414 476 36,000  Level FlightAware Transoceanic
Tue 06:42:00 AM 49.0522 -28.5990 267° West 414 476 36,000  Level FlightAware Transoceanic
Tue 06:43:00 AM 49.0466 -28.7743 267° West 414 476 36,000  Level FlightAware Transoceanic
Tue 06:44:00 AM 49.0407 -28.9495 267° West 414 476 36,000  Level FlightAware Transoceanic
Tue 06:45:00 AM 49.0346 -29.1247 267° West 414 476 36,000  Level FlightAware Transoceanic
Tue 06:46:00 AM 49.0282 -29.2999 267° West 414 476 36,000  Level FlightAware Transoceanic
Tue 06:47:00 AM 49.0215 -29.4750 267° West 414 476 36,000  Level FlightAware Transoceanic
Tue 06:48:00 AM 49.0146 -29.6500 266° West 414 476 36,000  Level FlightAware Transoceanic
Tue 06:49:00 AM 49.0075 -29.8250 266° West 414 476 36,000  Level FlightAware Transoceanic
Tue 06:50:00 AM 49.0005 -29.9879 266° West  Level FlightAware Approximate
Tue 06:51:00 AM 48.9934 -30.1507 266° West  Level FlightAware Approximate
Tue 06:51:00 AM 49.0000 -30.0000 274° West 421 484 36,000  Level ETMS Enhanced Traffic Management System
Tue 06:52:00 AM 49.0057 -30.1387 274° West  Level FlightAware Approximate
Tue 06:53:00 AM 49.0122 -30.3016 274° West  Level FlightAware Approximate
Tue 06:54:00 AM 49.0184 -30.4645 273° West  Level FlightAware Approximate
Tue 06:55:00 AM 49.0244 -30.6275 273° West  Level FlightAware Approximate
Tue 06:56:00 AM 49.0302 -30.7905 273° West  Level FlightAware Approximate
Tue 06:57:00 AM 49.0529 -31.4260 273° West 421 484 36,000  Level FlightAware Transoceanic
Tue 06:58:00 AM 49.0583 -31.6045 273° West 421 484 36,000  Level FlightAware Transoceanic
Tue 06:59:00 AM 49.0634 -31.7830 272° West 421 484 36,000  Level FlightAware Transoceanic
Tue 07:00:00 AM 49.0682 -31.9615 272° West 421 484 36,000  Level FlightAware Transoceanic
Tue 07:01:00 AM 49.0728 -32.1401 272° West 421 484 36,000  Level FlightAware Transoceanic
Tue 07:02:00 AM 49.0771 -32.3187 272° West 421 484 36,000  Level FlightAware Transoceanic
Tue 07:03:00 AM 49.0811 -32.4973 272° West 421 484 36,000  Level FlightAware Transoceanic
Tue 07:04:00 AM 49.0848 -32.6759 272° West 421 484 36,000  Level FlightAware Transoceanic
Tue 07:05:00 AM 49.0882 -32.8546 272° West 421 484 36,000  Level FlightAware Transoceanic
Tue 07:06:00 AM 49.0914 -33.0333 271° West 421 484 36,000  Level FlightAware Transoceanic
Tue 07:07:00 AM 49.0943 -33.2120 271° West 421 484 36,000  Level FlightAware Transoceanic
Tue 07:08:00 AM 49.0969 -33.3908 271° West 421 484 36,000  Level FlightAware Transoceanic
Tue 07:09:00 AM 49.0993 -33.5695 271° West 421 484 36,000  Level FlightAware Transoceanic
Tue 07:10:00 AM 49.1014 -33.7483 271° West 421 484 36,000  Level FlightAware Transoceanic
Tue 07:11:00 AM 49.1032 -33.9271 271° West 421 484 36,000  Level FlightAware Transoceanic
Tue 07:12:00 AM 49.1047 -34.1059 271° West 421 484 36,000  Level FlightAware Transoceanic
Tue 07:13:00 AM 49.1059 -34.2847 271° West 421 484 36,000  Level FlightAware Transoceanic
Tue 07:14:00 AM 49.1069 -34.4635 270° West 421 484 36,000  Level FlightAware Transoceanic
Tue 07:15:00 AM 49.1076 -34.6423 270° West 421 484 36,000  Level FlightAware Transoceanic
Tue 07:16:00 AM 49.1080 -34.8212 270° West 421 484 36,000  Level FlightAware Transoceanic
Tue 07:17:00 AM 49.1081 -35.0000 270° West 421 484 36,000  Level FlightAware Transoceanic
Tue 07:18:00 AM 49.1080 -35.1788 270° West 421 484 36,000  Level FlightAware Transoceanic
Tue 07:19:00 AM 49.1076 -35.3577 270° West 421 484 36,000  Level FlightAware Transoceanic
Tue 07:20:00 AM 49.1069 -35.5365 270° West 421 484 36,000  Level FlightAware Transoceanic
Tue 07:21:00 AM 49.1059 -35.7153 269° West 421 484 36,000  Level FlightAware Transoceanic
Tue 07:22:00 AM 49.1047 -35.8941 269° West 421 484 36,000  Level FlightAware Transoceanic
Tue 07:23:00 AM 49.1032 -36.0729 269° West 421 484 36,000  Level FlightAware Transoceanic
Tue 07:24:00 AM 49.1014 -36.2517 269° West 421 484 36,000  Level FlightAware Transoceanic
Tue 07:25:00 AM 49.0993 -36.4305 269° West 421 484 36,000  Level FlightAware Transoceanic
Tue 07:26:00 AM 49.0969 -36.6092 269° West 421 484 36,000  Level FlightAware Transoceanic
Tue 07:27:00 AM 49.0943 -36.7880 269° West 421 484 36,000  Level FlightAware Transoceanic
Tue 07:28:00 AM 49.0914 -36.9667 269° West 421 484 36,000  Level FlightAware Transoceanic
Tue 07:29:00 AM 49.0882 -37.1454 268° West 421 484 36,000  Level FlightAware Transoceanic
Tue 07:30:00 AM 49.0848 -37.3241 268° West 421 484 36,000  Level FlightAware Transoceanic
Tue 07:31:00 AM 49.0811 -37.5027 268° West 421 484 36,000  Level FlightAware Transoceanic
Tue 07:32:00 AM 49.0771 -37.6813 268° West 421 484 36,000  Level FlightAware Transoceanic
Tue 07:33:00 AM 49.0728 -37.8599 268° West 421 484 36,000  Level FlightAware Transoceanic
Tue 07:34:00 AM 49.0682 -38.0385 268° West 421 484 36,000  Level FlightAware Transoceanic
Tue 07:35:00 AM 49.0634 -38.2170 268° West 421 484 36,000  Level FlightAware Transoceanic
Tue 07:36:00 AM 49.0583 -38.3955 267° West 421 484 36,000  Level FlightAware Transoceanic
Tue 07:37:00 AM 49.0529 -38.5740 267° West 421 484 36,000  Level FlightAware Transoceanic
Tue 07:38:00 AM 49.0473 -38.7524 267° West 421 484 36,000  Level FlightAware Transoceanic
Tue 07:39:00 AM 49.0413 -38.9308 267° West 421 484 36,000  Level FlightAware Transoceanic
Tue 07:40:00 AM 49.0351 -39.1091 267° West 421 484 36,000  Level FlightAware Transoceanic
Tue 07:41:00 AM 49.0287 -39.2874 267° West 421 484 36,000  Level FlightAware Transoceanic
Tue 07:42:00 AM 49.0219 -39.4656 267° West 421 484 36,000  Level FlightAware Transoceanic
Tue 07:43:00 AM 49.0149 -39.6438 266° West 421 484 36,000  Level FlightAware Transoceanic
Tue 07:44:00 AM 49.0076 -39.8219 266° West 421 484 36,000  Level FlightAware Transoceanic
Tue 07:45:00 AM 49.0007 -39.9848 266° West  Level FlightAware Approximate
Tue 07:46:00 AM 48.9935 -40.1476 266° West  Level FlightAware Approximate
Tue 07:47:00 AM 48.9805 -40.1292 257° West  Level FlightAware Approximate
Tue 07:47:00 AM 49.0000 -40.0000 257° West 425 489 36,000  Level ETMS Enhanced Traffic Management System
Tue 07:48:00 AM 48.9562 -40.2881 257° West  Level FlightAware Approximate
Tue 07:49:00 AM 48.9318 -40.4468 257° West  Level FlightAware Approximate
Tue 07:50:00 AM 48.9072 -40.6053 257° West  Level FlightAware Approximate
Tue 07:51:00 AM 48.8823 -40.7637 257° West  Level FlightAware Approximate
Tue 07:52:00 AM 48.8572 -40.9219 257° West  Level FlightAware Approximate
Tue 07:53:00 AM 48.8319 -41.0800 256° West  Level FlightAware Approximate
Tue 07:54:00 AM 48.7806 -41.3998 256° West 425 489 36,000  Level FlightAware Transoceanic
Tue 07:55:00 AM 48.7520 -41.5739 256° West 425 489 36,000  Level FlightAware Transoceanic
Tue 07:56:00 AM 48.7231 -41.7478 256° West 425 489 36,000  Level FlightAware Transoceanic
Tue 07:57:00 AM 48.6940 -41.9215 256° West 425 489 36,000  Level FlightAware Transoceanic
Tue 07:58:00 AM 48.6646 -42.0950 256° West 425 489 36,000  Level FlightAware Transoceanic
Tue 07:59:00 AM 48.6349 -42.2683 255° West 425 489 36,000  Level FlightAware Transoceanic
Tue 08:00:00 AM 48.6050 -42.4414 255° West 425 489 36,000  Level FlightAware Transoceanic
Tue 08:01:00 AM 48.5748 -42.6143 255° West 425 489 36,000  Level FlightAware Transoceanic
Tue 08:02:00 AM 48.5444 -42.7869 255° West 425 489 36,000  Level FlightAware Transoceanic
Tue 08:03:00 AM 48.5137 -42.9594 255° West 425 489 36,000  Level FlightAware Transoceanic
Tue 08:04:00 AM 48.4828 -43.1317 255° West 425 489 36,000  Level FlightAware Transoceanic
Tue 08:05:00 AM 48.4516 -43.3037 255° West 425 489 36,000  Level FlightAware Transoceanic
Tue 08:06:00 AM 48.4201 -43.4756 255° West 425 489 36,000  Level FlightAware Transoceanic
Tue 08:07:00 AM 48.3884 -43.6472 254° West 425 489 36,000  Level FlightAware Transoceanic
Tue 08:08:00 AM 48.3564 -43.8186 254° West 425 489 36,000  Level FlightAware Transoceanic
Tue 08:09:00 AM 48.3242 -43.9898 254° West 425 489 36,000  Level FlightAware Transoceanic
Tue 08:10:00 AM 48.2917 -44.1607 254° West 425 489 36,000  Level FlightAware Transoceanic
Tue 08:11:00 AM 48.2590 -44.3315 254° West 425 489 36,000  Level FlightAware Transoceanic
Tue 08:12:00 AM 48.2260 -44.5020 254° West 425 489 36,000  Level FlightAware Transoceanic
Tue 08:13:00 AM 48.1927 -44.6724 254° West 425 489 36,000  Level FlightAware Transoceanic
Tue 08:14:00 AM 48.1593 -44.8424 253° West 425 489 36,000  Level FlightAware Transoceanic
Tue 08:15:00 AM 48.1255 -45.0123 253° West 425 489 36,000  Level FlightAware Transoceanic
Tue 08:16:00 AM 48.0915 -45.1820 253° West 425 489 36,000  Level FlightAware Transoceanic
Tue 08:17:00 AM 48.0573 -45.3514 253° West 425 489 36,000  Level FlightAware Transoceanic
Tue 08:18:00 AM 48.0228 -45.5206 253° West 425 489 36,000  Level FlightAware Transoceanic
Tue 08:19:00 AM 47.9881 -45.6896 253° West 425 489 36,000  Level FlightAware Transoceanic
Tue 08:20:00 AM 47.9531 -45.8583 253° West 425 489 36,000  Level FlightAware Transoceanic
Tue 08:21:00 AM 47.9179 -46.0268 253° West 425 489 36,000  Level FlightAware Transoceanic
Tue 08:22:00 AM 47.8824 -46.1951 252° West 425 489 36,000  Level FlightAware Transoceanic
Tue 08:23:00 AM 47.8467 -46.3632 252° West 425 489 36,000  Level FlightAware Transoceanic
Tue 08:24:00 AM 47.8107 -46.5310 252° West 425 489 36,000  Level FlightAware Transoceanic
Tue 08:25:00 AM 47.7745 -46.6986 252° West 425 489 36,000  Level FlightAware Transoceanic
Tue 08:26:00 AM 47.7380 -46.8659 252° West 425 489 36,000  Level FlightAware Transoceanic
Tue 08:27:00 AM 47.7013 -47.0330 252° West 425 489 36,000  Level FlightAware Transoceanic
Tue 08:28:00 AM 47.6644 -47.1999 252° West 425 489 36,000  Level FlightAware Transoceanic
Tue 08:29:00 AM 47.6272 -47.3666 252° West 425 489 36,000  Level FlightAware Transoceanic
Tue 08:30:00 AM 47.5898 -47.5330 251° West 425 489 36,000  Level FlightAware Transoceanic
Tue 08:31:00 AM 47.5521 -47.6991 251° West 425 489 36,000  Level FlightAware Transoceanic
Tue 08:32:00 AM 47.5142 -47.8651 251° West 425 489 36,000  Level FlightAware Transoceanic
Tue 08:33:00 AM 47.4761 -48.0308 251° West 425 489 36,000  Level FlightAware Transoceanic
Tue 08:34:00 AM 47.4377 -48.1962 251° West 425 489 36,000  Level FlightAware Transoceanic
Tue 08:35:00 AM 47.3991 -48.3614 251° West 425 489 36,000  Level FlightAware Transoceanic
Tue 08:36:00 AM 47.3602 -48.5264 251° West 425 489 36,000  Level FlightAware Transoceanic
Tue 08:37:00 AM 47.3212 -48.6911 251° West 425 489 36,000  Level FlightAware Transoceanic
Tue 08:38:00 AM 47.2818 -48.8556 251° West 425 489 36,000  Level FlightAware Transoceanic
Tue 08:39:00 AM 47.2423 -49.0198 250° West 425 489 36,000  Level FlightAware Transoceanic
Tue 08:40:00 AM 47.2025 -49.1838 250° West 425 489 36,000  Level FlightAware Transoceanic
Tue 08:41:00 AM 47.1624 -49.3475 250° West 425 489 36,000  Level FlightAware Transoceanic
Tue 08:41:37 AM 47.1760 -49.3720 250° West 394 453 36,000  Level FlightAware ADS-B
Tue 08:42:00 AM 47.1222 -49.5110 250° West 425 489 36,000  Level FlightAware Transoceanic
Tue 08:42:32 AM 47.1420 -49.5100 250° West 393 452 36,000  Level FlightAware ADS-B
Tue 08:44:27 AM 47.0730 -49.7830 250° West 392 451 36,000  Level FlightAware ADS-B
Tue 08:45:17 AM 47.0390 -49.9170 250° West 394 453 36,000  Level FlightAware ADS-B
Tue 08:45:57 AM 47.0180 -50.0020 250° West 394 453 36,000  Level FlightAware ADS-B
Tue 08:46:00 AM 47.0000 -50.0000 259° West 356 410 36,000  Level ETMS Enhanced Traffic Management System
Tue 08:46:47 AM 46.9920 -50.1090 250° West 394 453 36,000  Level FlightAware ADS-B
Tue 08:47:27 AM 46.9710 -50.1940 250° West 394 453 36,000  Level FlightAware ADS-B
Tue 08:48:07 AM 46.9490 -50.2800 249° West 394 453 36,000  Level FlightAware ADS-B
Tue 08:48:47 AM 46.9280 -50.3650 250° West 394 453 36,000  Level FlightAware ADS-B
Tue 08:49:37 AM 46.9020 -50.4720 250° West 394 453 36,000  Level FlightAware ADS-B
Tue 08:50:17 AM 46.8800 -50.5570 249° West 394 453 36,000  Level FlightAware ADS-B
Tue 08:50:57 AM 46.8590 -50.6420 250° West 394 453 36,000 1,500 Level FlightAware ADS-B
Tue 08:51:37 AM 46.9020 -50.9080 283° West 399 459 38,000 1,263 Climbing FlightAware ADS-B
Tue 08:52:00 AM 46.8760 -50.9323 259° West  Level FlightAware Approximate
Tue 08:52:32 AM 46.8840 -51.0450 259° West 400 460 38,000  Level FlightAware ADS-B
Tue 08:53:07 AM 46.8730 -51.1310 259° West 400 460 38,000  Level FlightAware ADS-B
Tue 08:53:47 AM 46.8620 -51.2220 260° West 400 460 38,000  Level FlightAware ADS-B
Tue 08:54:27 AM 46.8520 -51.3120 261° West 400 460 38,000  Level FlightAware ADS-B
Tue 08:55:12 AM 46.8280 -51.4700 258° West 402 463 38,000  Level FlightAware ADS-B
Tue 08:55:47 AM 46.8140 -51.5740 259° West 400 460 38,000  Level FlightAware ADS-B
Tue 08:56:32 AM 46.7980 -51.6900 259° West 398 458 38,000  Level FlightAware ADS-B
Tue 08:57:17 AM 46.7820 -51.8110 259° West 396 456 38,000  Level FlightAware ADS-B
Tue 08:57:57 AM 46.7680 -51.9110 258° West 394 453 38,000  Level FlightAware ADS-B
Tue 08:58:42 AM 46.7520 -52.0280 259° West 392 451 38,000  Level FlightAware ADS-B
Tue 08:59:22 AM 46.7380 -52.1310 259° West 390 449 38,000  Level FlightAware ADS-B
Tue 09:00:02 AM 46.7230 -52.2350 258° West 388 447 38,000  Level FlightAware ADS-B
Tue 09:00:47 AM 46.7070 -52.3520 259° West 387 445 38,000  Level FlightAware ADS-B
Tue 09:01:27 AM 46.6920 -52.4550 258° West 385 443 38,000  Level FlightAware ADS-B
Tue 09:02:12 AM 46.6770 -52.5640 259° West 384 442 38,000  Level FlightAware ADS-B
Tue 09:02:52 AM 46.6620 -52.6680 258° West 384 442 38,000  Level FlightAware ADS-B
Tue 09:03:32 AM 46.6480 -52.7660 258° West 384 442 38,000  Level FlightAware ADS-B
Tue 09:04:12 AM 46.6330 -52.8660 258° West 385 443 38,000  Level FlightAware ADS-B
Tue 09:04:57 AM 46.6170 -52.9760 258° West 385 443 38,000  Level FlightAware ADS-B
Tue 09:05:42 AM 46.6000 -53.0960 258° West 385 443 38,000  Level FlightAware ADS-B
Tue 09:06:22 AM 46.5850 -53.1970 258° West 384 442 38,000  Level FlightAware ADS-B
Tue 09:07:07 AM 46.5680 -53.3120 258° West 383 441 38,000  Level FlightAware ADS-B
Tue 09:07:47 AM 46.5530 -53.4120 258° West 381 438 38,000  Level FlightAware ADS-B
Tue 09:08:27 AM 46.5380 -53.5110 258° West 381 438 38,000  Level FlightAware ADS-B
Tue 09:09:12 AM 46.5210 -53.6220 257° West 380 437 38,000  Level FlightAware ADS-B
Tue 09:09:52 AM 46.5060 -53.7210 258° West 380 437 38,000  Level FlightAware ADS-B
Tue 09:10:37 AM 46.4890 -53.8360 258° West 380 437 38,000  Level FlightAware ADS-B
Tue 09:11:17 AM 46.4740 -53.9350 258° West 380 437 38,000  Level FlightAware ADS-B
Tue 09:12:02 AM 46.4570 -54.0440 257° West 379 436 38,000  Level FlightAware ADS-B
Tue 09:12:37 AM 46.4440 -54.1240 257° West 379 436 38,000  Level FlightAware ADS-B
Tue 09:13:22 AM 46.4280 -54.2250 257° West 379 436 38,000  Level FlightAware ADS-B
Tue 09:14:02 AM 46.4150 -54.3100 258° West 379 436 38,000  Level FlightAware ADS-B
Tue 09:14:42 AM 46.4010 -54.3940 256° West 379 436 38,000  Level FlightAware ADS-B
Tue 09:15:32 AM 46.3840 -54.4990 257° West 379 436 38,000  Level FlightAware ADS-B
Tue 09:16:12 AM 46.3710 -54.5830 257° West 379 436 38,000  Level FlightAware ADS-B
Tue 09:16:52 AM 46.3580 -54.6670 257° West 379 436 38,000  Level FlightAware ADS-B
Tue 09:17:32 AM 46.3440 -54.7520 257° West 379 436 38,000  Level FlightAware ADS-B
Tue 09:18:12 AM 46.3310 -54.8360 257° West 379 436 38,000  Level FlightAware ADS-B
Tue 09:19:02 AM 46.3140 -54.9410 257° West 379 436 38,000  Level FlightAware ADS-B
Tue 09:19:42 AM 46.3010 -55.0250 257° West 379 436 38,000  Level FlightAware ADS-B
Tue 09:20:22 AM 46.2870 -55.1090 256° West 379 436 38,000  Level FlightAware ADS-B
Tue 09:21:02 AM 46.2740 -55.1930 257° West 379 436 38,000  Level FlightAware ADS-B
Tue 09:21:42 AM 46.2600 -55.2770 256° West 379 436 38,000  Level FlightAware ADS-B
Tue 09:22:32 AM 46.2440 -55.3820 258° West 379 436 38,000  Level FlightAware ADS-B
Tue 09:23:27 AM 46.1870 -55.7000 256° West 369 425 38,000  Level FlightAware ADS-B
Tue 09:24:07 AM 46.1690 -55.8070 256° West 368 423 38,000  Level FlightAware ADS-B
Tue 09:24:52 AM 46.1510 -55.9120 256° West 368 423 38,000  Level FlightAware ADS-B
Tue 09:25:47 AM 46.1300 -56.0340 256° West 368 423 38,000  Level FlightAware ADS-B
Tue 09:26:27 AM 46.1160 -56.1160 256° West 368 423 38,000  Level FlightAware ADS-B
Tue 09:27:07 AM 46.1020 -56.1970 256° West 368 423 38,000  Level FlightAware ADS-B
Tue 09:27:47 AM 46.0880 -56.2780 256° West 368 423 38,000  Level FlightAware ADS-B
Tue 09:28:27 AM 46.0740 -56.3580 256° West 368 423 38,000  Level FlightAware ADS-B
Tue 09:29:17 AM 46.0560 -56.4600 256° West 368 423 38,000  Level FlightAware ADS-B
Tue 09:29:57 AM 46.0420 -56.5410 256° West 368 423 38,000  Level FlightAware ADS-B
Tue 09:30:37 AM 46.0280 -56.6210 256° West 368 423 38,000  Level FlightAware ADS-B
Tue 09:31:17 AM 45.9890 -56.8230 255° West 364 419 38,000  Level FlightAware ADS-B
Tue 09:32:17 AM 45.9650 -56.9530 255° West 365 420 38,000  Level FlightAware ADS-B
Tue 09:32:57 AM 45.9500 -57.0330 255° West 365 420 38,000  Level FlightAware ADS-B
Tue 09:33:37 AM 45.9350 -57.1130 255° West 365 420 38,000  Level FlightAware ADS-B
Tue 09:34:17 AM 45.9210 -57.1930 256° West 365 420 38,000  Level FlightAware ADS-B
Tue 09:34:57 AM 45.9060 -57.2720 255° West 365 420 38,000  Level FlightAware ADS-B
Tue 09:35:47 AM 45.8870 -57.3720 255° West 365 420 38,000  Level FlightAware ADS-B
Tue 09:36:32 AM 45.8540 -57.5500 255° West 360 414 38,000  Level FlightAware ADS-B
Tue 09:37:12 AM 45.8360 -57.6430 255° West 359 413 38,000  Level FlightAware ADS-B
Tue 09:37:52 AM 45.8180 -57.7350 254° West 359 413 38,000  Level FlightAware ADS-B
Tue 09:38:37 AM 45.7980 -57.8390 255° West 358 412 38,000  Level FlightAware ADS-B
Tue 09:39:17 AM 45.7810 -57.9300 255° West 358 412 38,000  Level FlightAware ADS-B
Tue 09:40:02 AM 45.7610 -58.0310 254° West 357 411 38,000  Level FlightAware ADS-B
Tue 09:40:42 AM 45.7430 -58.1220 254° West 355 409 38,000  Level FlightAware ADS-B
Tue 09:41:27 AM 45.7230 -58.2240 254° West 353 406 38,000  Level FlightAware ADS-B
Tue 09:42:07 AM 45.7050 -58.3140 254° West 353 406 38,000  Level FlightAware ADS-B
Tue 09:42:47 AM 45.6870 -58.4050 254° West 353 406 38,000  Level FlightAware ADS-B
Tue 09:43:32 AM 45.6670 -58.5040 254° West 354 407 38,000  Level FlightAware ADS-B
Tue 09:44:12 AM 45.6490 -58.5930 254° West 355 409 38,000  Level FlightAware ADS-B
Tue 09:44:52 AM 45.6310 -58.6840 254° West 354 407 38,000  Level FlightAware ADS-B
Tue 09:45:37 AM 45.6100 -58.7850 253° West 354 407 38,000  Level FlightAware ADS-B
Tue 09:46:17 AM 45.5920 -58.8740 254° West 354 407 38,000  Level FlightAware ADS-B
Tue 09:46:57 AM 45.5730 -58.9640 253° West 353 406 38,000  Level FlightAware ADS-B
Tue 09:47:42 AM 45.5530 -59.0620 254° West 352 405 38,000  Level FlightAware ADS-B
Tue 09:48:22 AM 45.5340 -59.1520 253° West 350 403 38,000  Level FlightAware ADS-B
Tue 09:49:07 AM 45.5130 -59.2510 253° West 349 402 38,000  Level FlightAware ADS-B
Tue 09:49:47 AM 45.4940 -59.3400 253° West 348 400 38,000  Level FlightAware ADS-B
Tue 09:50:27 AM 45.4750 -59.4290 253° West 348 400 38,000  Level FlightAware ADS-B
Tue 09:51:12 AM 45.4550 -59.5240 253° West 348 400 38,000  Level FlightAware ADS-B
Tue 09:51:52 AM 45.4360 -59.6110 253° West 348 400 38,000  Level FlightAware ADS-B
Tue 09:52:37 AM 45.4150 -59.7120 254° West 348 400 38,000  Level FlightAware ADS-B
Tue 09:53:17 AM 45.3960 -59.8000 253° West 347 399 38,000  Level FlightAware ADS-B
Tue 09:53:57 AM 45.3770 -59.8860 253° West 344 396 38,000  Level FlightAware ADS-B
Tue 09:54:42 AM 45.3560 -59.9820 253° West 342 394 38,000  Level FlightAware ADS-B
Tue 09:55:22 AM 45.3370 -60.0660 252° West 343 395 38,000  Level FlightAware ADS-B
Tue 09:56:07 AM 45.3160 -60.1650 253° West 343 395 38,000  Level FlightAware ADS-B
Tue 09:56:47 AM 45.2960 -60.2520 252° West 345 397 38,000  Level FlightAware ADS-B
Tue 09:57:27 AM 45.2780 -60.3370 253° West 346 398 38,000  Level FlightAware ADS-B
Tue 09:58:12 AM 45.2560 -60.4320 252° West 345 397 38,000  Level FlightAware ADS-B
Tue 09:58:52 AM 45.2370 -60.5180 253° West 345 397 38,000  Level FlightAware ADS-B
Tue 09:59:32 AM 45.2170 -60.6050 252° West 345 397 38,000  Level FlightAware ADS-B
Tue 10:00:17 AM 45.1950 -60.7030 252° West 346 398 38,000  Level FlightAware ADS-B
Tue 10:00:57 AM 45.1750 -60.7890 252° West 346 398 38,000  Level FlightAware ADS-B
Tue 10:01:42 AM 45.1550 -60.8780 252° West 345 397 38,000  Level FlightAware ADS-B
Tue 10:02:37 AM 45.1280 -60.9920 251° West 345 397 38,000  Level FlightAware ADS-B
Tue 10:03:17 AM 45.1100 -61.0640 251° West 345 397 38,000  Level FlightAware ADS-B
Tue 10:03:57 AM 45.0930 -61.1370 252° West 345 397 38,000  Level FlightAware ADS-B
Tue 10:04:37 AM 45.0750 -61.2100 251° West 345 397 38,000  Level FlightAware ADS-B
Tue 10:05:17 AM 45.0570 -61.2820 251° West 345 397 38,000  Level FlightAware ADS-B
Tue 10:06:07 AM 45.0350 -61.3730 251° West 345 397 38,000  Level FlightAware ADS-B
Tue 10:06:47 AM 45.0180 -61.4460 252° West 345 397 38,000  Level FlightAware ADS-B
Tue 10:07:27 AM 45.0000 -61.5180 251° West 345 397 38,000  Level FlightAware ADS-B
Tue 10:08:07 AM 44.9820 -61.5910 251° West 345 397 38,000  Level FlightAware ADS-B
Tue 10:08:47 AM 44.9650 -61.6630 252° West 345 397 38,000  Level FlightAware ADS-B
Tue 10:09:37 AM 44.9430 -61.7540 251° West 345 397 38,000  Level FlightAware ADS-B
Tue 10:10:17 AM 44.9250 -61.8260 251° West 345 397 38,000  Level FlightAware ADS-B
Tue 10:10:57 AM 44.9070 -61.8990 251° West 345 397 38,000  Level FlightAware ADS-B
Tue 10:11:37 AM 44.8900 -61.9710 252° West 345 397 38,000  Level FlightAware ADS-B
Tue 10:12:25 AM 44.8167 -62.2167 252° West 340 391 38,000  Level Gander Center
Tue 10:13:08 AM 44.8000 -62.3167 257° West 340 391 38,000  Level Moncton Center
Tue 10:14:08 AM 44.7667 -62.4500 251° West 340 391 38,000  Level Moncton Center
Tue 10:20:22 AM 44.5800 -63.2550 251° West 344 396 38,000  Level FlightAware ADS-B
Tue 10:20:57 AM 44.5630 -63.3260 251° West 344 396 38,000  Level FlightAware ADS-B
Tue 10:21:42 AM 44.5380 -63.4220 250° West 344 396 38,000  Level FlightAware ADS-B
Tue 10:22:27 AM 44.5130 -63.5190 250° West 344 396 38,000  Level FlightAware ADS-B
Tue 10:23:07 AM 44.4930 -63.5980 250° West 343 395 38,000  Level FlightAware ADS-B
Tue 10:23:52 AM 44.4690 -63.6930 251° West 342 394 38,000  Level FlightAware ADS-B
Tue 10:24:27 AM 44.4490 -63.7670 249° West 342 394 38,000  Level FlightAware ADS-B
Tue 10:25:12 AM 44.4260 -63.8590 251° West 341 392 38,000  Level FlightAware ADS-B
Tue 10:25:57 AM 44.4030 -63.9470 250° West 340 391 38,000  Level FlightAware ADS-B
Tue 10:26:32 AM 44.3830 -64.0230 250° West 340 391 38,000  Level FlightAware ADS-B
Tue 10:27:17 AM 44.3590 -64.1150 250° West 340 391 38,000  Level FlightAware ADS-B
Tue 10:28:02 AM 44.3340 -64.2110 250° West 340 391 38,000  Level FlightAware ADS-B
Tue 10:28:42 AM 44.3130 -64.2910 250° West 340 391 38,000  Level FlightAware ADS-B
Tue 10:29:27 AM 44.2890 -64.3840 250° West 341 392 38,000  Level FlightAware ADS-B
Tue 10:30:07 AM 44.2680 -64.4640 250° West 339 390 38,000  Level FlightAware ADS-B
Tue 10:30:47 AM 44.2450 -64.5480 249° West 338 389 38,000  Level FlightAware ADS-B
Tue 10:31:32 AM 44.2210 -64.6390 250° West 339 390 38,000  Level FlightAware ADS-B
Tue 10:32:17 AM 44.1980 -64.7250 250° West 339 390 38,000  Level FlightAware ADS-B
Tue 10:32:57 AM 44.1750 -64.8120 250° West 339 390 38,000  Level FlightAware ADS-B
Tue 10:33:37 AM 44.1530 -64.8930 249° West 337 388 38,000  Level FlightAware ADS-B
Tue 10:34:22 AM 44.1280 -64.9880 250° West 338 389 38,000  Level FlightAware ADS-B
Tue 10:35:02 AM 44.1060 -65.0690 249° West 339 390 38,000  Level FlightAware ADS-B
Tue 10:35:42 AM 44.0840 -65.1520 250° West 339 390 38,000  Level FlightAware ADS-B
Tue 10:36:27 AM 44.0590 -65.2450 250° West 340 391 38,000  Level FlightAware ADS-B
Tue 10:37:07 AM 44.0360 -65.3290 249° West 341 392 38,000  Level FlightAware ADS-B
Tue 10:37:47 AM 44.0130 -65.4110 249° West 341 392 38,000  Level FlightAware ADS-B
Tue 10:38:32 AM 43.9880 -65.5030 249° West 341 392 38,000  Level FlightAware ADS-B
Tue 10:39:12 AM 43.9650 -65.5880 249° West 342 394 38,000  Level FlightAware ADS-B
Tue 10:41:47 AM 43.8800 -65.8970 249° West 342 394 38,000  Level FlightAware ADS-B
Tue 10:43:12 AM 43.8310 -66.0730 249° West 342 394 38,000  Level FlightAware ADS-B
Tue 10:43:52 AM 43.8070 -66.1560 248° West 342 394 38,000  Level FlightAware ADS-B
Tue 10:44:37 AM 43.7810 -66.2520 249° West 342 394 38,000  Level FlightAware ADS-B
Tue 10:45:17 AM 43.7580 -66.3310 248° West 342 394 38,000  Level FlightAware ADS-B
Tue 10:45:57 AM 43.7350 -66.4140 249° West 342 394 38,000  Level FlightAware ADS-B
Tue 10:46:42 AM 43.7090 -66.5050 248° West 342 394 38,000  Level FlightAware ADS-B
Tue 10:47:22 AM 43.6850 -66.5900 249° West 342 394 38,000  Level FlightAware ADS-B
Tue 10:48:07 AM 43.6590 -66.6800 248° West 345 397 38,000  Level FlightAware ADS-B
Tue 10:48:47 AM 43.6360 -66.7610 249° West 344 396 38,000  Level FlightAware ADS-B
Tue 10:49:32 AM 43.6080 -66.8580 248° West 344 396 38,000  Level FlightAware ADS-B
Tue 10:50:17 AM 43.5820 -66.9460 248° West 343 395 38,000  Level FlightAware ADS-B
Tue 10:50:57 AM 43.5590 -67.0270 249° West 340 391 38,000  Level FlightAware ADS-B
Tue 10:51:37 AM 43.5360 -67.1090 249° West 339 390 38,000  Level FlightAware ADS-B
Tue 10:52:22 AM 43.5120 -67.1990 250° West 338 389 38,000  Level FlightAware ADS-B
Tue 10:53:02 AM 43.4890 -67.2820 249° West 337 388 38,000  Level FlightAware ADS-B
Tue 10:53:42 AM 43.4660 -67.3630 249° West 339 390 38,000  Level FlightAware ADS-B
Tue 10:54:22 AM 43.4430 -67.4430 248° West 339 390 38,000  Level FlightAware ADS-B
Tue 10:55:07 AM 43.4180 -67.5350 250° West 339 390 38,000  Level FlightAware ADS-B
Tue 10:55:52 AM 43.3920 -67.6260 249° West 339 390 38,000  Level FlightAware ADS-B
Tue 10:56:32 AM 43.3690 -67.7080 249° West 339 390 38,000  Level FlightAware ADS-B
Tue 10:57:12 AM 43.3450 -67.7910 248° West 340 391 38,000  Level FlightAware ADS-B
Tue 10:57:57 AM 43.3190 -67.8820 249° West 342 394 38,000  Level FlightAware ADS-B
Tue 10:58:32 AM 43.2990 -67.9530 249° West 342 394 38,000  Level FlightAware ADS-B
Tue 10:59:22 AM 43.2700 -68.0530 248° West 345 397 38,000  Level FlightAware ADS-B
Tue 11:00:12 AM 43.2430 -68.1450 248° West 345 397 38,000  Level FlightAware ADS-B
Tue 11:01:12 AM 43.2090 -68.2610 248° West 345 397 38,000  Level FlightAware ADS-B
Tue 11:01:57 AM 43.1800 -68.3610 248° West 345 397 38,000  Level FlightAware ADS-B
Tue 11:02:47 AM 43.1490 -68.4680 248° West 345 397 38,000  Level FlightAware ADS-B
Tue 11:03:27 AM 43.1260 -68.5440 248° West 344 396 38,000  Level FlightAware ADS-B
Tue 11:04:17 AM 43.0950 -68.6500 248° West 343 395 38,000  Level FlightAware ADS-B
Tue 11:04:57 AM 43.0720 -68.7280 248° West 343 395 38,000  Level FlightAware ADS-B
Tue 11:05:37 AM 43.0510 -68.7950 247° West 342 394 38,000  Level FlightAware ADS-B
Tue 11:06:22 AM 43.0230 -68.8910 248° West 341 392 38,000  Level FlightAware ADS-B
Tue 11:07:17 AM 42.9880 -69.0090 248° West 340 391 38,000  Level FlightAware ADS-B
Tue 11:07:57 AM 42.9640 -69.0880 247° West 339 390 38,000  Level FlightAware ADS-B
Tue 11:08:42 AM 42.9370 -69.1760 247° West 338 389 38,000  Level FlightAware ADS-B
Tue 11:09:17 AM 42.9180 -69.2390 248° West 338 389 38,000  Level FlightAware ADS-B
Tue 11:10:02 AM 42.8900 -69.3310 247° West 337 388 38,000  Level FlightAware ADS-B
Tue 11:10:42 AM 42.8670 -69.4060 247° West 337 388 38,000  Level FlightAware ADS-B
Tue 11:11:42 AM 42.8300 -69.5260 247° West 336 387 38,000  Level FlightAware ADS-B
Tue 11:12:27 AM 42.8020 -69.6160 247° West 335 386 38,000  Level FlightAware ADS-B
Tue 11:13:07 AM 42.7780 -69.6930 247° West 335 386 38,000  Level FlightAware ADS-B
Tue 11:13:42 AM 42.7570 -69.7610 247° West 335 386 38,000  Level FlightAware ADS-B
Tue 11:14:32 AM 42.7260 -69.8580 247° West 335 386 38,000  Level FlightAware ADS-B
Tue 11:15:12 AM 42.7020 -69.9360 247° West 335 386 38,000  Level FlightAware ADS-B
Tue 11:15:52 AM 42.6800 -70.0060 247° West 335 386 38,000  Level FlightAware ADS-B
Tue 11:16:37 AM 42.6500 -70.0990 246° West 335 386 38,000  Level FlightAware ADS-B
Tue 11:17:17 AM 42.6250 -70.1770 246° West 335 386 38,000  Level FlightAware ADS-B
Tue 11:18:02 AM 42.6000 -70.2560 247° West 335 386 38,000  Level FlightAware ADS-B
Tue 11:18:42 AM 42.5720 -70.3410 246° West 334 384 38,000  Level FlightAware ADS-B
Tue 11:19:22 AM 42.5470 -70.4180 246° West 333 383 38,000 -847 Level FlightAware ADS-B
Tue 11:20:07 AM 42.5210 -70.5000 247° West 336 387 36,800 -1,624 Descending FlightAware ADS-B
Tue 11:20:47 AM 42.4940 -70.5810 246° West 338 389 35,700 -1,976 Descending FlightAware ADS-B
Tue 11:21:32 AM 42.4650 -70.6690 246° West 341 392 34,000 -2,188 Descending FlightAware ADS-B
Tue 11:22:12 AM 42.4390 -70.7480 246° West 342 394 32,600 -2,047 Descending FlightAware ADS-B
Tue 11:22:57 AM 42.4110 -70.8340 246° West 343 395 31,100 -1,694 Descending FlightAware ADS-B
Tue 11:23:37 AM 42.3870 -70.9060 246° West 340 391 30,200 -1,350 Descending FlightAware ADS-B
Tue 11:24:17 AM 42.3610 -70.9860 246° West 337 388 29,300 -1,482 Descending FlightAware ADS-B
Tue 11:25:02 AM 42.3370 -71.0770 250° West 341 392 28,100 -1,482 Descending FlightAware ADS-B
Tue 11:25:42 AM 42.3180 -71.1590 253° West 334 384 27,200 -1,835 Descending FlightAware ADS-B
Tue 11:26:27 AM 42.2960 -71.2500 252° West 357 411 25,500 -1,976 Descending FlightAware ADS-B
Tue 11:27:07 AM 42.2740 -71.3370 251° West 371 427 24,400 -1,275 Descending FlightAware ADS-B
Tue 11:27:47 AM 42.2530 -71.4250 252° West 369 425 23,800 -847 Descending FlightAware ADS-B
Tue 11:28:32 AM 42.2290 -71.5220 252° West 362 417 23,200 -565 Descending FlightAware ADS-B
Tue 11:29:12 AM 42.2080 -71.6070 252° West 355 409 23,000 -150 Descending FlightAware ADS-B
Tue 11:29:52 AM 42.1880 -71.6900 252° West 356 410 23,000  Level FlightAware ADS-B
Tue 11:30:37 AM 42.1650 -71.7830 252° West 359 413 23,000  Level FlightAware ADS-B
Tue 11:31:17 AM 42.1450 -71.8620 251° West 359 413 23,000  Level FlightAware ADS-B
Tue 11:31:57 AM 42.1220 -71.9540 251° West 360 414 23,000  Level FlightAware ADS-B
Tue 11:32:37 AM 42.1010 -72.0370 251° West 359 413 23,000  Level FlightAware ADS-B
Tue 11:33:22 AM 42.0770 -72.1310 251° West 356 410 23,000  Level FlightAware ADS-B
Tue 11:34:02 AM 42.0570 -72.2130 252° West 353 406 23,000  Level FlightAware ADS-B
Tue 11:34:47 AM 42.0330 -72.3050 251° West 350 403 23,000  Level FlightAware ADS-B
Tue 11:35:22 AM 42.0130 -72.3840 251° West 23,000  Level FlightAware ADS-B
Tue 11:36:07 AM 41.9910 -72.4700 251° West 23,000  Level FlightAware ADS-B
Tue 11:37:07 AM 42.0210 -72.3520 71° East 351 404 23,000  Level FlightAware ADS-B
Tue 11:37:47 AM 42.0030 -72.4230 251° West 351 404 23,000  Level FlightAware ADS-B
Tue 11:38:27 AM 41.9850 -72.4930 251° West 351 404 23,000  Level FlightAware ADS-B
Tue 11:39:17 AM 41.9630 -72.5810 251° West 351 404 23,000  Level FlightAware ADS-B
Tue 11:39:57 AM 41.9450 -72.6510 251° West 351 404 23,000  Level FlightAware ADS-B
Tue 11:40:37 AM 41.9270 -72.7210 251° West 351 404 23,000  Level FlightAware ADS-B
Tue 11:41:47 AM 41.8140 -73.1880 252° West 362 417 23,000  Level FlightAware ADS-B
Tue 11:42:32 AM 41.7900 -73.2830 251° West 362 417 23,000 -141 Level FlightAware ADS-B
Tue 11:43:12 AM 41.7700 -73.3650 252° West 357 411 22,800 -918 Descending FlightAware ADS-B
Tue 11:43:57 AM 41.7460 -73.4630 252° West 352 405 21,700 -1,412 Descending FlightAware ADS-B
Tue 11:44:37 AM 41.7260 -73.5430 252° West 350 403 20,800 -1,350 Descending FlightAware ADS-B
Tue 11:45:17 AM 41.7060 -73.6240 252° West 348 400 19,900 -1,553 Descending FlightAware ADS-B
Tue 11:46:02 AM 41.6830 -73.7190 252° West 350 403 18,600 -1,765 Descending FlightAware ADS-B
Tue 11:46:42 AM 41.6580 -73.7980 247° West 344 396 17,400 -2,259 Descending FlightAware ADS-B
Tue 11:47:27 AM 41.6230 -73.8830 241° Southwest 351 404 15,400 -3,176 Descending FlightAware ADS-B
Tue 11:48:07 AM 41.5910 -73.9610 241° Southwest 371 427 12,900 -1,832 Descending FlightAware ADS-B
Tue 11:49:02 AM 41.5490 -74.0590 240° Southwest 368 423 12,500 -253 Descending FlightAware ADS-B
Tue 11:49:42 AM 41.5200 -74.1260 240° Southwest 368 423 12,500 -3,184 Level FlightAware ADS-B
Tue 11:49:51 AM 41.5055 -74.1624 242° Southwest 355 409 9,900 -3,867 Descending FlightAware ADS-B
Tue 11:50:27 AM 41.4820 -74.2180 241° Southwest 294 338 9,600 -254 Descending FlightAware ADS-B
Tue 11:51:02 AM 41.4610 -74.2670 240° Southwest 287 330 9,600  Level FlightAware ADS-B
Tue 11:51:32 AM 41.4440 -74.3060 240° Southwest 287 330 9,600  Level FlightAware ADS-B
Tue 11:52:02 AM 41.4270 -74.3450 240° Southwest 287 330 9,600  Level FlightAware ADS-B
Tue 11:52:32 AM 41.4100 -74.3840 240° Southwest 287 330 9,600 -906 Level FlightAware ADS-B
Tue 11:56:27 AM 41.1340 -74.5150 200° South 258 297 5,600 -980 Descending FlightAware ADS-B
Tue 11:56:37 AM 41.1200 -74.5210 198° South 257 296 5,600  Level FlightAware ADS-B
Tue 11:57:16 AM 41.0748 -74.5405 198° South 256 295 5,600  Level FlightAware ADS-B
Tue 11:58:07 AM 41.0210 -74.5550 191° South 256 295 5,600  Level FlightAware ADS-B
Tue 11:58:22 AM 41.0000 -74.5600 190° South 254 292 5,600  Level FlightAware ADS-B
Tue 11:58:52 AM 40.9650 -74.5680 190° South 255 293 5,600  Level FlightAware ADS-B
Tue 11:59:17 AM 40.9370 -74.5750 191° South 255 293 5,600  Level FlightAware ADS-B
Tue 11:59:25 AM 40.9244 -74.5775 189° South 257 296 5,600  Level FlightAware ADS-B
Tue 11:59:59 AM 40.8865 -74.5866 190° South 230 265 5,600  Level FlightAware ADS-B
Tue 12:00:15 PM 40.8707 -74.5905 191° South 220 253 5,600  Level FlightAware ADS-B
Tue 12:00:30 PM 40.8550 -74.5943 190° South 216 249 5,600  Level FlightAware ADS-B
Tue 12:00:40 PM 40.8454 -74.5967 191° South 214 246 5,600  Level FlightAware ADS-B
Tue 12:00:52 PM 40.8338 -74.5996 191° South 213 245 5,600  Level FlightAware ADS-B
Tue 12:00:53 PM 40.8334 -74.5996 180° South 213 245 5,600  Level FlightAware ADS-B
Tue 12:00:57 PM 40.8288 -74.6003 187° South 213 245 5,600  Level FlightAware ADS-B
Tue 12:01:15 PM 40.8116 -74.6013 183° South 213 245 5,600  Level FlightAware ADS-B
Tue 12:01:17 PM 40.8096 -74.6013 180° South 213 245 5,600  Level FlightAware ADS-B
Tue 12:01:28 PM 40.7988 -74.6008 178° South 215 247 5,600 -353 Level FlightAware ADS-B
Tue 12:01:34 PM 40.7927 -74.5998 173° South 214 246 5,500 -800 Descending FlightAware ADS-B
Tue 12:01:43 PM 40.7836 -74.5977 170° South 212 244 5,400 -643 Descending FlightAware ADS-B
Tue 12:02:02 PM 40.7656 -74.5933 170° South 211 243 5,200 -615 Descending FlightAware ADS-B
Tue 12:02:22 PM 40.7468 -74.5884 169° South 211 243 5,000 -818 Descending FlightAware ADS-B
Tue 12:02:46 PM 40.7232 -74.5829 170° South 211 243 4,600 -632 Descending FlightAware ADS-B
Tue 12:03:00 PM 40.7100 -74.5779 164° South 210 242 4,600 107 Level FlightAware ADS-B
Tue 12:03:42 PM 40.6720 -74.5600 160° South 210 242 4,700  Climbing FlightAware ADS-B
Tue 12:03:57 PM 40.6600 -74.5540 159° South 211 243 4,600 -128 Descending FlightAware ADS-B
Tue 12:04:29 PM 40.6281 -74.5397 161° South 211 243 4,600 -235 Level FlightAware ADS-B
Tue 12:04:48 PM 40.6106 -74.5316 161° South 209 241 4,400 -686 Descending FlightAware ADS-B
Tue 12:05:04 PM 40.5962 -74.5253 162° South 209 241 4,200 -774 Descending FlightAware ADS-B
Tue 12:05:19 PM 40.5821 -74.5189 161° South 209 241 4,000 -667 Descending FlightAware ADS-B
Tue 12:05:40 PM 40.5631 -74.5103 161° South 209 241 3,800 -649 Descending FlightAware ADS-B
Tue 12:05:56 PM 40.5486 -74.5042 162° South 207 238 3,600 -387 Descending FlightAware ADS-B
Tue 12:06:11 PM 40.5349 -74.4982 162° South 205 236 3,600  Level FlightAware ADS-B
Tue 12:06:27 PM 40.5207 -74.4921 162° South 197 227 3,600 194 Level FlightAware ADS-B
Tue 12:06:42 PM 40.5078 -74.4866 162° South 189 217 3,700  Climbing FlightAware ADS-B
Tue 12:06:57 PM 40.4954 -74.4815 163° South 182 209 3,600 -194 Descending FlightAware ADS-B
Tue 12:07:13 PM 40.4832 -74.4765 163° South 176 203 3,600  Level FlightAware ADS-B
Tue 12:07:29 PM 40.4709 -74.4712 162° South 174 200 3,600 231 Level FlightAware ADS-B
Tue 12:07:39 PM 40.4643 -74.4643 142° Southeast 167 192 3,700 400 Climbing FlightAware ADS-B
Tue 12:07:44 PM 40.4623 -74.4607 126° Southeast 167 192 3,700  Level FlightAware ADS-B
Tue 12:07:59 PM 40.4565 -74.4473 120° Southeast 167 192 3,700 -194 Level FlightAware ADS-B
Tue 12:08:15 PM 40.4506 -74.4334 119° Southeast 167 192 3,600 -182 Descending FlightAware ADS-B
Tue 12:08:32 PM 40.4444 -74.4180 118° Southeast 166 191 3,600  Level FlightAware ADS-B
Tue 12:08:48 PM 40.4388 -74.4039 118° Southeast 167 192 3,600 194 Level FlightAware ADS-B
Tue 12:09:03 PM 40.4329 -74.3900 119° Southeast 169 194 3,700  Climbing FlightAware ADS-B
Tue 12:09:15 PM 40.4288 -74.3790 116° Southeast 167 192 3,600 -140 Descending FlightAware ADS-B
Tue 12:09:46 PM 40.4286 -74.3488 90° East 170 196 3,600  Level FlightAware ADS-B
Tue 12:10:32 PM 40.4590 -74.3210 35° Northeast 181 208 3,600 98 Level FlightAware ADS-B
Tue 12:10:47 PM 40.4710 -74.3150 21° North 183 211 3,700  Climbing FlightAware ADS-B
Tue 12:11:01 PM 40.4824 -74.3079 25° Northeast 182 209 3,600  Descending FlightAware ADS-B
Tue 12:11:26 PM 40.5018 -74.2961 25° Northeast 182 209 3,700 -429 Climbing FlightAware ADS-B
Tue 12:11:57 PM 40.5240 -74.2830 24° Northeast 184 212 3,200 -1,067 Descending FlightAware ADS-B
Tue 12:12:11 PM 40.5361 -74.2748 27° Northeast 186 214 2,900 -1,154 Descending FlightAware ADS-B
Tue 12:12:23 PM 40.5452 -74.2692 25° Northeast 182 209 2,700 -828 Descending FlightAware ADS-B
Tue 12:12:40 PM 40.5578 -74.2613 25° Northeast 175 201 2,500 -1,021 Descending FlightAware ADS-B
Tue 12:13:10 PM 40.5790 -74.2479 26° Northeast 160 184 1,900 -1,043 Descending FlightAware ADS-B
Tue 12:13:26 PM 40.5897 -74.2413 25° Northeast 166 191 1,700 -828 Descending FlightAware ADS-B
Tue 12:13:39 PM 40.5988 -74.2355 26° Northeast 165 190 1,500 -857 Descending FlightAware ADS-B
Tue 12:13:54 PM 40.6091 -74.2291 25° Northeast 155 178 1,300 -800 Descending FlightAware ADS-B
Tue 12:14:09 PM 40.6183 -74.2233 26° Northeast 144 166 1,100 -774 Descending FlightAware ADS-B
Tue 12:14:25 PM 40.6266 -74.2181 25° Northeast 126 145 900 -692 Descending FlightAware ADS-B
Tue 12:14:35 PM 40.6321 -74.2149 24° Northeast 119 137 800 -720 Descending FlightAware ADS-B
Tue 12:14:50 PM 40.6391 -74.2104 26° Northeast 119 137 600 -638 Descending FlightAware ADS-B
Tue 12:15:22 PM 40.6547 -74.2007 25° Northeast 116 133 300 -638 Descending FlightAware ADS-B
Tue 12:15:37 PM 40.6623 -74.1960 25° Northeast 121 139 100 -800 Descending FlightAware ADS-B

Login

Don't have an account? Register now (free) for customized features, flight alerts, and more!